Wetterdaten: Mittwoch, 22.04.2020
Datum Zeit Temp. Aussen Temp. o. S. Temp +5cm Feuchte Auss Luftdruck Regen Sonnenschein Regendauer Solar Windben Empfang
22.04.2020 00:00 12,1 C 10,6 C 10,0 C 58 % 1018,5 hPa 0,0 l/m 0 min 0 min 0 W/m 6,4 km/h (2 Bft) 100,00 %
22.04.2020 00:02 12,1 C 10,6 C 10,0 C 58 % 1018,4 hPa 0,0 l/m 0 min 0 min 0 W/m 6,4 km/h (2 Bft) 97,56 %
22.04.2020 00:04 12,0 C 10,6 C 10,0 C 58 % 1018,5 hPa 0,0 l/m 0 min 0 min 0 W/m 0,0 km/h (0 Bft) 97,83 %
22.04.2020 00:08 11,9 C 10,6 C 10,0 C 58 % 1018,5 hPa 0,0 l/m 0 min 0 min 0 W/m 3,2 km/h (1 Bft) 100,00 %
22.04.2020 00:10 11,9 C 10,6 C 10,0 C 58 % 1018,5 hPa 0,0 l/m 0 min 0 min 0 W/m 9,7 km/h (2 Bft) 100,00 %
22.04.2020 00:12 11,9 C 10,6 C 10,0 C 58 % 1018,5 hPa 0,0 l/m 0 min 0 min 0 W/m 6,4 km/h (2 Bft) 100,00 %
22.04.2020 00:14 11,8 C 10,6 C 10,0 C 58 % 1018,5 hPa 0,0 l/m 0 min 0 min 0 W/m 6,4 km/h (2 Bft) 100,00 %
22.04.2020 00:16 11,8 C 10,6 C 10,0 C 58 % 1018,5 hPa 0,0 l/m 0 min 0 min 0 W/m 3,2 km/h (1 Bft) 100,00 %
22.04.2020 00:18 11,8 C 10,6 C 10,0 C 59 % 1018,6 hPa 0,0 l/m 0 min 0 min 0 W/m 3,2 km/h (1 Bft) 100,00 %
22.04.2020 00:20 11,8 C 10,6 C 10,0 C 59 % 1018,6 hPa 0,0 l/m 0 min 0 min 0 W/m 3,2 km/h (1 Bft) 100,00 %
22.04.2020 00:22 11,8 C 10,6 C 10,0 C 59 % 1018,6 hPa 0,0 l/m 0 min 0 min 0 W/m 3,2 km/h (1 Bft) 100,00 %
22.04.2020 00:24 11,7 C 10,6 C 10,0 C 59 % 1018,6 hPa 0,0 l/m 0 min 0 min 0 W/m 9,7 km/h (2 Bft) 100,00 %
22.04.2020 00:26 11,7 C 10,6 C 10,0 C 59 % 1018,7 hPa 0,0 l/m 0 min 0 min 0 W/m 3,2 km/h (1 Bft) 100,00 %
22.04.2020 00:28 11,7 C 10,6 C 10,0 C 59 % 1018,7 hPa 0,0 l/m 0 min 0 min 0 W/m 0,0 km/h (0 Bft) 100,00 %
22.04.2020 00:30 11,7 C 10,6 C 10,0 C 59 % 1018,7 hPa 0,0 l/m 0 min 0 min 0 W/m 9,7 km/h (2 Bft) 97,87 %
22.04.2020 00:32 11,7 C 10,6 C 10,0 C 59 % 1018,7 hPa 0,0 l/m 0 min 0 min 0 W/m 3,2 km/h (1 Bft) 97,87 %
22.04.2020 00:34 11,7 C 10,6 C 10,0 C 59 % 1018,8 hPa 0,0 l/m 0 min 0 min 0 W/m 12,9 km/h (3 Bft) 100,00 %
22.04.2020 00:36 11,7 C 10,6 C 10,0 C 59 % 1018,8 hPa 0,0 l/m 0 min 0 min 0 W/m 3,2 km/h (1 Bft) 100,00 %
22.04.2020 00:38 11,6 C 10,6 C 10,0 C 59 % 1018,8 hPa 0,0 l/m 0 min 0 min 0 W/m 3,2 km/h (1 Bft) 97,83 %
22.04.2020 00:40 11,6 C 10,6 C 10,0 C 59 % 1018,8 hPa 0,0 l/m 0 min 0 min 0 W/m 3,2 km/h (1 Bft) 97,87 %
22.04.2020 00:42 11,6 C 10,6 C 10,0 C 59 % 1018,8 hPa 0,0 l/m 0 min 0 min 0 W/m 3,2 km/h (1 Bft) 97,87 %
22.04.2020 00:44 11,6 C 10,6 C 10,0 C 59 % 1018,8 hPa 0,0 l/m 0 min 0 min 0 W/m 6,4 km/h (2 Bft) 97,87 %
22.04.2020 00:46 11,6 C 10,6 C 10,0 C 60 % 1018,8 hPa 0,0 l/m 0 min 0 min 0 W/m 0,0 km/h (0 Bft) 100,00 %
22.04.2020 00:48 11,6 C 10,6 C 10,0 C 59 % 1018,8 hPa 0,0 l/m 0 min 0 min 0 W/m 0,0 km/h (0 Bft) 100,00 %
22.04.2020 00:50 11,6 C 10,6 C 10,0 C 59 % 1018,8 hPa 0,0 l/m 0 min 0 min 0 W/m 3,2 km/h (1 Bft) 97,83 %
22.04.2020 00:52 11,6 C 10,6 C 10,0 C 59 % 1018,9 hPa 0,0 l/m 0 min 0 min 0 W/m 3,2 km/h (1 Bft) 97,87 %
22.04.2020 00:54 11,6 C 10,6 C 10,0 C 60 % 1018,9 hPa 0,0 l/m 0 min 0 min 0 W/m 9,7 km/h (2 Bft) 97,87 %
22.04.2020 00:56 11,6 C 10,6 C 10,0 C 59 % 1018,9 hPa 0,0 l/m 0 min 0 min 0 W/m 6,4 km/h (2 Bft) 95,74 %
22.04.2020 00:58 11,6 C 10,6 C 10,0 C 59 % 1018,9 hPa 0,0 l/m 0 min 0 min 0 W/m 6,4 km/h (2 Bft) 97,87 %
22.04.2020 01:00 11,6 C 10,6 C 10,0 C 59 % 1018,9 hPa 0,0 l/m 0 min 0 min 0 W/m 6,4 km/h (2 Bft) 97,87 %
22.04.2020 01:02 11,6 C 10,6 C 10,0 C 60 % 1018,9 hPa 0,0 l/m 0 min 0 min 0 W/m 3,2 km/h (1 Bft) 97,83 %
22.04.2020 01:04 11,6 C 10,6 C 10,0 C 59 % 1018,8 hPa 0,0 l/m 0 min 0 min 0 W/m 6,4 km/h (2 Bft) 97,87 %
22.04.2020 01:06 11,6 C 10,6 C 10,0 C 60 % 1018,9 hPa 0,0 l/m 0 min 0 min 0 W/m 12,9 km/h (3 Bft) 97,87 %
22.04.2020 01:08 11,6 C 10,6 C 10,0 C 59 % 1018,9 hPa 0,0 l/m 0 min 0 min 0 W/m 9,7 km/h (2 Bft) 95,74 %
22.04.2020 01:10 11,6 C 10,6 C 10,0 C 59 % 1018,9 hPa 0,0 l/m 0 min 0 min 0 W/m 9,7 km/h (2 Bft) 97,87 %
22.04.2020 01:12 11,6 C 10,6 C 10,0 C 60 % 1018,9 hPa 0,0 l/m 0 min 0 min 0 W/m 6,4 km/h (2 Bft) 97,87 %
22.04.2020 01:14 11,6 C 10,6 C 10,0 C 60 % 1018,9 hPa 0,0 l/m 0 min 0 min 0 W/m 9,7 km/h (2 Bft) 95,65 %
22.04.2020 01:16 11,5 C 10,6 C 9,4 C 60 % 1018,9 hPa 0,0 l/m 0 min 0 min 0 W/m 3,2 km/h (1 Bft) 95,74 %
22.04.2020 01:18 11,5 C 10,6 C 9,4 C 60 % 1018,9 hPa 0,0 l/m 0 min 0 min 0 W/m 9,7 km/h (2 Bft) 97,87 %
22.04.2020 01:20 11,5 C 10,6 C 9,4 C 60 % 1018,9 hPa 0,0 l/m 0 min 0 min 0 W/m 6,4 km/h (2 Bft) 95,74 %
22.04.2020 01:22 11,5 C 10,0 C 9,4 C 60 % 1018,9 hPa 0,0 l/m 0 min 0 min 0 W/m 3,2 km/h (1 Bft) 97,87 %
22.04.2020 01:24 11,5 C 10,6 C 9,4 C 60 % 1018,9 hPa 0,0 l/m 0 min 0 min 0 W/m 3,2 km/h (1 Bft) 97,87 %
22.04.2020 01:26 11,4 C 10,6 C 9,4 C 60 % 1018,9 hPa 0,0 l/m 0 min 0 min 0 W/m 12,9 km/h (3 Bft) 97,83 %
22.04.2020 01:28 11,4 C 10,0 C 9,4 C 60 % 1019,0 hPa 0,0 l/m 0 min 0 min 0 W/m 6,4 km/h (2 Bft) 97,87 %
22.04.2020 01:30 11,4 C 10,0 C 9,4 C 60 % 1019,0 hPa 0,0 l/m 0 min 0 min 0 W/m 6,4 km/h (2 Bft) 97,87 %
22.04.2020 01:32 11,4 C 10,0 C 9,4 C 60 % 1019,0 hPa 0,0 l/m 0 min 0 min 0 W/m 3,2 km/h (1 Bft) 100,00 %
22.04.2020 01:34 11,4 C 10,0 C 9,4 C 60 % 1019,0 hPa 0,0 l/m 0 min 0 min 0 W/m 9,7 km/h (2 Bft) 100,00 %
22.04.2020 01:36 11,4 C 10,6 C 9,4 C 60 % 1019,0 hPa 0,0 l/m 0 min 0 min 0 W/m 9,7 km/h (2 Bft) 100,00 %
22.04.2020 01:38 11,4 C 10,6 C 9,4 C 60 % 1019,0 hPa 0,0 l/m 0 min 0 min 0 W/m 9,7 km/h (2 Bft) 97,87 %
22.04.2020 01:40 11,3 C 10,6 C 9,4 C 60 % 1019,0 hPa 0,0 l/m 0 min 0 min 0 W/m 9,7 km/h (2 Bft) 95,74 %
22.04.2020 01:42 11,3 C 10,0 C 9,4 C 60 % 1019,0 hPa 0,0 l/m 0 min 0 min 0 W/m 9,7 km/h (2 Bft) 97,87 %
22.04.2020 01:44 11,3 C 10,6 C 9,4 C 60 % 1019,0 hPa 0,0 l/m 0 min 0 min 0 W/m 9,7 km/h (2 Bft) 97,87 %
22.04.2020 01:46 11,3 C 10,0 C 9,4 C 60 % 1019,0 hPa 0,0 l/m 0 min 0 min 0 W/m 9,7 km/h (2 Bft) 100,00 %
22.04.2020 01:48 11,3 C 10,0 C 9,4 C 60 % 1019,0 hPa 0,0 l/m 0 min 0 min 0 W/m 3,2 km/h (1 Bft) 97,83 %
22.04.2020 01:50 11,3 C 10,0 C 9,4 C 60 % 1019,0 hPa 0,0 l/m 0 min 0 min 0 W/m 3,2 km/h (1 Bft) 93,62 %
22.04.2020 01:52 11,3 C 10,0 C 9,4 C 60 % 1019,0 hPa 0,0 l/m 0 min 0 min 0 W/m 6,4 km/h (2 Bft) 97,87 %
22.04.2020 01:54 11,3 C 10,0 C 9,4 C 60 % 1019,0 hPa 0,0 l/m 0 min 0 min 0 W/m 12,9 km/h (3 Bft) 95,74 %
22.04.2020 01:56 11,2 C 10,0 C 9,4 C 61 % 1019,0 hPa 0,0 l/m 0 min 0 min 0 W/m 9,7 km/h (2 Bft) 95,74 %
22.04.2020 01:58 11,2 C 10,0 C 9,4 C 61 % 1019,0 hPa 0,0 l/m 0 min 0 min 0 W/m 16,1 km/h (3 Bft) 97,87 %
22.04.2020 02:00 11,2 C 10,0 C 9,4 C 61 % 1019,1 hPa 0,0 l/m 0 min 0 min 0 W/m 6,4 km/h (2 Bft) 97,83 %
22.04.2020 02:02 11,2 C 10,0 C 9,4 C 61 % 1018,9 hPa 0,0 l/m 0 min 0 min 0 W/m 3,2 km/h (1 Bft) 97,87 %
22.04.2020 02:04 11,1 C 10,0 C 9,4 C 61 % 1019,0 hPa 0,0 l/m 0 min 0 min 0 W/m 3,2 km/h (1 Bft) 97,87 %
22.04.2020 02:06 11,1 C 10,0 C 9,4 C 61 % 1019,0 hPa 0,0 l/m 0 min 0 min 0 W/m 9,7 km/h (2 Bft) 97,87 %
22.04.2020 02:08 11,1 C 10,0 C 9,4 C 61 % 1019,0 hPa 0,0 l/m 0 min 0 min 0 W/m 3,2 km/h (1 Bft) 95,74 %
22.04.2020 02:10 11,1 C 10,0 C 9,4 C 61 % 1019,0 hPa 0,0 l/m 0 min 0 min 0 W/m 6,4 km/h (2 Bft) 97,87 %
22.04.2020 02:12 11,1 C 10,0 C 9,4 C 61 % 1019,0 hPa 0,0 l/m 0 min 0 min 0 W/m 9,7 km/h (2 Bft) 95,65 %
22.04.2020 02:14 11,0 C 10,0 C 9,4 C 61 % 1019,0 hPa 0,0 l/m 0 min 0 min 0 W/m 3,2 km/h (1 Bft) 97,87 %
22.04.2020 02:16 11,0 C 10,0 C 9,4 C 61 % 1019,0 hPa 0,0 l/m 0 min 0 min 0 W/m 6,4 km/h (2 Bft) 97,87 %
22.04.2020 02:18 10,9 C 10,0 C 8,9 C 61 % 1019,0 hPa 0,0 l/m 0 min 0 min 0 W/m 3,2 km/h (1 Bft) 97,87 %
22.04.2020 02:20 10,9 C 10,0 C 8,9 C 61 % 1019,1 hPa 0,0 l/m 0 min 0 min 0 W/m 6,4 km/h (2 Bft) 97,87 %
22.04.2020 02:22 10,9 C 9,4 C 8,9 C 61 % 1019,0 hPa 0,0 l/m 0 min 0 min 0 W/m 3,2 km/h (1 Bft) 97,87 %
22.04.2020 02:24 10,9 C 9,4 C 8,9 C 62 % 1019,0 hPa 0,0 l/m 0 min 0 min 0 W/m 6,4 km/h (2 Bft) 95,65 %
22.04.2020 02:26 10,9 C 9,4 C 8,9 C 62 % 1019,0 hPa 0,0 l/m 0 min 0 min 0 W/m 6,4 km/h (2 Bft) 95,74 %
22.04.2020 02:28 10,9 C 9,4 C 8,9 C 62 % 1019,1 hPa 0,0 l/m 0 min 0 min 0 W/m 3,2 km/h (1 Bft) 97,87 %
22.04.2020 02:30 10,8 C 9,4 C 8,9 C 62 % 1019,0 hPa 0,0 l/m 0 min 0 min 0 W/m 3,2 km/h (1 Bft) 95,74 %
22.04.2020 02:32 10,8 C 9,4 C 8,9 C 62 % 1019,0 hPa 0,0 l/m 0 min 0 min 0 W/m 0,0 km/h (0 Bft) 95,74 %
22.04.2020 02:34 10,8 C 9,4 C 8,9 C 62 % 1019,0 hPa 0,0 l/m 0 min 0 min 0 W/m 6,4 km/h (2 Bft) 97,83 %
22.04.2020 02:36 10,7 C 9,4 C 8,9 C 62 % 1019,0 hPa 0,0 l/m 0 min 0 min 0 W/m 0,0 km/h (0 Bft) 95,74 %
22.04.2020 02:38 10,7 C 9,4 C 8,9 C 62 % 1019,1 hPa 0,0 l/m 0 min 0 min 0 W/m 6,4 km/h (2 Bft) 97,87 %
22.04.2020 02:40 10,7 C 9,4 C 8,9 C 62 % 1019,1 hPa 0,0 l/m 0 min 0 min 0 W/m 3,2 km/h (1 Bft) 97,87 %
22.04.2020 02:42 10,7 C 9,4 C 8,9 C 62 % 1019,1 hPa 0,0 l/m 0 min 0 min 0 W/m 3,2 km/h (1 Bft) 97,87 %
22.04.2020 02:44 10,6 C 9,4 C 8,9 C 63 % 1019,2 hPa 0,0 l/m 0 min 0 min 0 W/m 0,0 km/h (0 Bft) 97,87 %
22.04.2020 02:46 10,6 C 9,4 C 8,9 C 63 % 1019,2 hPa 0,0 l/m 0 min 0 min 0 W/m 3,2 km/h (1 Bft) 97,83 %
22.04.2020 02:48 10,6 C 8,9 C 8,3 C 63 % 1019,1 hPa 0,0 l/m 0 min 0 min 0 W/m 3,2 km/h (1 Bft) 93,62 %
22.04.2020 02:50 10,6 C 8,9 C 8,3 C 63 % 1019,2 hPa 0,0 l/m 0 min 0 min 0 W/m 3,2 km/h (1 Bft) 97,87 %
22.04.2020 02:52 10,5 C 8,9 C 8,3 C 63 % 1019,2 hPa 0,0 l/m 0 min 0 min 0 W/m 0,0 km/h (0 Bft) 97,87 %
22.04.2020 02:54 10,5 C 8,9 C 8,3 C 63 % 1019,1 hPa 0,0 l/m 0 min 0 min 0 W/m 0,0 km/h (0 Bft) 97,87 %
22.04.2020 02:56 10,4 C 8,9 C 8,3 C 63 % 1019,1 hPa 0,0 l/m 0 min 0 min 0 W/m 3,2 km/h (1 Bft) 95,74 %
22.04.2020 02:58 10,4 C 8,9 C 8,3 C 63 % 1019,1 hPa 0,0 l/m 0 min 0 min 0 W/m 3,2 km/h (1 Bft) 95,65 %
22.04.2020 03:00 10,4 C 8,9 C 8,3 C 63 % 1019,1 hPa 0,0 l/m 0 min 0 min 0 W/m 0,0 km/h (0 Bft) 95,74 %
22.04.2020 03:02 10,3 C 8,9 C 8,3 C 63 % 1019,1 hPa 0,0 l/m 0 min 0 min 0 W/m 0,0 km/h (0 Bft) 93,62 %
22.04.2020 03:04 10,3 C 8,9 C 8,3 C 64 % 1019,1 hPa 0,0 l/m 0 min 0 min 0 W/m 3,2 km/h (1 Bft) 97,87 %
22.04.2020 03:06 10,3 C 8,9 C 8,3 C 64 % 1019,1 hPa 0,0 l/m 0 min 0 min 0 W/m 3,2 km/h (1 Bft) 97,87 %
22.04.2020 03:08 10,3 C 8,9 C 8,3 C 64 % 1019,1 hPa 0,0 l/m 0 min 0 min 0 W/m 3,2 km/h (1 Bft) 93,62 %
22.04.2020 03:10 10,2 C 8,9 C 8,3 C 64 % 1019,1 hPa 0,0 l/m 0 min 0 min 0 W/m 0,0 km/h (0 Bft) 95,65 %
22.04.2020 03:12 10,2 C 8,9 C 8,3 C 64 % 1019,1 hPa 0,0 l/m 0 min 0 min 0 W/m 0,0 km/h (0 Bft) 95,74 %
22.04.2020 03:14 10,2 C 8,9 C 7,8 C 64 % 1019,1 hPa 0,0 l/m 0 min 0 min 0 W/m 0,0 km/h (0 Bft) 97,87 %
22.04.2020 03:16 10,1 C 8,3 C 7,8 C 64 % 1019,1 hPa 0,0 l/m 0 min 0 min 0 W/m 0,0 km/h (0 Bft) 95,74 %
22.04.2020 03:21 10,1 C 8,3 C 7,8 C 64 % 1019,1 hPa 0,0 l/m 0 min 0 min 0 W/m 0,0 km/h (0 Bft) 95,00 %
22.04.2020 03:22 10,1 C 8,3 C 7,8 C 64 % 1019,1 hPa 0,0 l/m 0 min 0 min 0 W/m 0,0 km/h (0 Bft) 100,00 %
22.04.2020 03:24 10,0 C 8,3 C 7,8 C 64 % 1019,1 hPa 0,0 l/m 0 min 0 min 0 W/m 3,2 km/h (1 Bft) 95,74 %
22.04.2020 03:26 10,0 C 8,3 C 7,8 C 65 % 1019,1 hPa 0,0 l/m 0 min 0 min 0 W/m 3,2 km/h (1 Bft) 95,74 %
22.04.2020 03:28 9,9 C 8,3 C 7,8 C 65 % 1019,1 hPa 0,0 l/m 0 min 0 min 0 W/m 3,2 km/h (1 Bft) 95,74 %
22.04.2020 03:30 9,9 C 8,3 C 7,8 C 65 % 1019,1 hPa 0,0 l/m 0 min 0 min 0 W/m 6,4 km/h (2 Bft) 97,87 %
22.04.2020 03:32 9,9 C 8,3 C 7,8 C 65 % 1019,1 hPa 0,0 l/m 0 min 0 min 0 W/m 0,0 km/h (0 Bft) 97,87 %
22.04.2020 03:34 9,8 C 8,3 C 7,8 C 65 % 1019,0 hPa 0,0 l/m 0 min 0 min 0 W/m 3,2 km/h (1 Bft) 97,83 %
22.04.2020 03:36 9,8 C 8,3 C 7,8 C 65 % 1019,1 hPa 0,0 l/m 0 min 0 min 0 W/m 0,0 km/h (0 Bft) 95,74 %
22.04.2020 03:38 9,7 C 8,3 C 7,8 C 65 % 1019,1 hPa 0,0 l/m 0 min 0 min 0 W/m 0,0 km/h (0 Bft) 97,87 %
22.04.2020 03:40 9,7 C 8,3 C 7,8 C 65 % 1019,1 hPa 0,0 l/m 0 min 0 min 0 W/m 0,0 km/h (0 Bft) 97,87 %
22.04.2020 03:42 9,6 C 8,3 C 7,8 C 66 % 1019,1 hPa 0,0 l/m 0 min 0 min 0 W/m 0,0 km/h (0 Bft) 97,87 %
22.04.2020 03:44 9,6 C 8,3 C 7,8 C 66 % 1019,1 hPa 0,0 l/m 0 min 0 min 0 W/m 6,4 km/h (2 Bft) 95,74 %
22.04.2020 03:46 9,6 C 7,8 C 7,8 C 66 % 1019,1 hPa 0,0 l/m 0 min 0 min 0 W/m 3,2 km/h (1 Bft) 97,83 %
22.04.2020 03:48 9,6 C 7,8 C 7,2 C 66 % 1019,1 hPa 0,0 l/m 0 min 0 min 0 W/m 3,2 km/h (1 Bft) 97,87 %
22.04.2020 03:50 9,5 C 7,8 C 7,2 C 66 % 1019,1 hPa 0,0 l/m 0 min 0 min 0 W/m 3,2 km/h (1 Bft) 97,87 %
22.04.2020 03:52 9,4 C 7,8 C 7,2 C 66 % 1019,1 hPa 0,0 l/m 0 min 0 min 0 W/m 6,4 km/h (2 Bft) 100,00 %
22.04.2020 03:54 9,4 C 7,8 C 7,2 C 67 % 1019,2 hPa 0,0 l/m 0 min 0 min 0 W/m 0,0 km/h (0 Bft) 100,00 %
22.04.2020 03:56 9,4 C 7,8 C 7,2 C 67 % 1019,2 hPa 0,0 l/m 0 min 0 min 0 W/m 0,0 km/h (0 Bft) 100,00 %
22.04.2020 03:58 9,4 C 8,3 C 7,2 C 67 % 1019,2 hPa 0,0 l/m 0 min 0 min 0 W/m 3,2 km/h (1 Bft) 100,00 %
22.04.2020 04:00 9,3 C 8,3 C 7,2 C 67 % 1019,2 hPa 0,0 l/m 0 min 0 min 0 W/m 0,0 km/h (0 Bft) 100,00 %
22.04.2020 04:02 9,3 C 7,8 C 7,2 C 67 % 1019,2 hPa 0,0 l/m 0 min 0 min 0 W/m 3,2 km/h (1 Bft) 90,91 %
22.04.2020 04:04 9,3 C 7,8 C 7,2 C 67 % 1019,2 hPa 0,0 l/m 0 min 0 min 0 W/m 0,0 km/h (0 Bft) 97,87 %
22.04.2020 04:06 9,3 C 7,8 C 7,2 C 67 % 1019,2 hPa 0,0 l/m 0 min 0 min 0 W/m 3,2 km/h (1 Bft) 100,00 %
22.04.2020 04:08 9,2 C 7,8 C 7,2 C 67 % 1019,2 hPa 0,0 l/m 0 min 0 min 0 W/m 3,2 km/h (1 Bft) 100,00 %
22.04.2020 04:10 9,2 C 7,8 C 7,2 C 67 % 1019,3 hPa 0,0 l/m 0 min 0 min 0 W/m 0,0 km/h (0 Bft) 100,00 %
22.04.2020 04:12 9,2 C 7,8 C 7,2 C 68 % 1019,2 hPa 0,0 l/m 0 min 0 min 0 W/m 0,0 km/h (0 Bft) 97,87 %
22.04.2020 04:14 9,2 C 7,8 C 7,2 C 68 % 1019,3 hPa 0,0 l/m 0 min 0 min 0 W/m 0,0 km/h (0 Bft) 100,00 %
22.04.2020 04:16 9,2 C 7,8 C 7,2 C 68 % 1019,3 hPa 0,0 l/m 0 min 0 min 0 W/m 0,0 km/h (0 Bft) 100,00 %
22.04.2020 04:18 9,2 C 7,8 C 7,2 C 68 % 1019,3 hPa 0,0 l/m 0 min 0 min 0 W/m 0,0 km/h (0 Bft) 100,00 %
22.04.2020 04:20 9,1 C 7,8 C 7,2 C 68 % 1019,2 hPa 0,0 l/m 0 min 0 min 0 W/m 3,2 km/h (1 Bft) 100,00 %
22.04.2020 04:22 9,1 C 7,8 C 7,2 C 68 % 1019,3 hPa 0,0 l/m 0 min 0 min 0 W/m 3,2 km/h (1 Bft) 100,00 %
22.04.2020 04:24 9,1 C 7,8 C 7,2 C 68 % 1019,2 hPa 0,0 l/m 0 min 0 min 0 W/m 3,2 km/h (1 Bft) 100,00 %
22.04.2020 04:26 9,1 C 7,8 C 7,2 C 68 % 1019,2 hPa 0,0 l/m 0 min 0 min 0 W/m 6,4 km/h (2 Bft) 100,00 %
22.04.2020 04:28 9,1 C 7,8 C 7,2 C 68 % 1019,2 hPa 0,0 l/m 0 min 0 min 0 W/m 3,2 km/h (1 Bft) 97,87 %
22.04.2020 04:30 9,0 C 7,8 C 7,2 C 68 % 1019,2 hPa 0,0 l/m 0 min 0 min 0 W/m 6,4 km/h (2 Bft) 97,87 %
22.04.2020 04:32 9,0 C 7,8 C 7,2 C 68 % 1019,3 hPa 0,0 l/m 0 min 0 min 0 W/m 3,2 km/h (1 Bft) 97,83 %
22.04.2020 04:34 8,9 C 7,8 C 7,2 C 68 % 1019,2 hPa 0,0 l/m 0 min 0 min 0 W/m 3,2 km/h (1 Bft) 95,74 %
22.04.2020 04:36 8,9 C 7,8 C 7,2 C 68 % 1019,3 hPa 0,0 l/m 0 min 0 min 0 W/m 3,2 km/h (1 Bft) 97,87 %
22.04.2020 04:38 8,9 C 7,8 C 7,2 C 69 % 1019,3 hPa 0,0 l/m 0 min 0 min 0 W/m 3,2 km/h (1 Bft) 95,74 %
22.04.2020 04:40 8,9 C 7,8 C 7,2 C 69 % 1019,3 hPa 0,0 l/m 0 min 0 min 0 W/m 0,0 km/h (0 Bft) 54,35 %
22.04.2020 04:42 8,9 C 7,8 C 7,2 C 69 % 1019,3 hPa 0,0 l/m 0 min 0 min 0 W/m 6,4 km/h (2 Bft) 97,78 %
22.04.2020 04:44 8,8 C 7,8 C 7,2 C 69 % 1019,3 hPa 0,0 l/m 0 min 0 min 0 W/m 0,0 km/h (0 Bft) 95,65 %
22.04.2020 04:46 8,8 C 7,8 C 7,2 C 69 % 1019,3 hPa 0,0 l/m 0 min 0 min 0 W/m 0,0 km/h (0 Bft) 97,87 %
22.04.2020 04:48 8,8 C 7,8 C 7,2 C 69 % 1019,3 hPa 0,0 l/m 0 min 0 min 0 W/m 0,0 km/h (0 Bft) 97,87 %
22.04.2020 04:50 8,8 C 7,8 C 7,2 C 69 % 1019,3 hPa 0,0 l/m 0 min 0 min 0 W/m 0,0 km/h (0 Bft) 95,74 %
22.04.2020 04:52 8,8 C 7,8 C 7,2 C 69 % 1019,3 hPa 0,0 l/m 0 min 0 min 0 W/m 0,0 km/h (0 Bft) 95,74 %
22.04.2020 04:54 8,8 C 7,8 C 7,2 C 69 % 1019,3 hPa 0,0 l/m 0 min 0 min 0 W/m 0,0 km/h (0 Bft) 97,83 %
22.04.2020 04:56 8,8 C 7,8 C 7,2 C 69 % 1019,4 hPa 0,0 l/m 0 min 0 min 0 W/m 6,4 km/h (2 Bft) 97,87 %
22.04.2020 04:58 8,8 C 7,8 C 6,7 C 69 % 1019,4 hPa 0,0 l/m 0 min 0 min 0 W/m 3,2 km/h (1 Bft) 97,87 %
22.04.2020 05:00 8,7 C 7,2 C 6,7 C 69 % 1019,4 hPa 0,0 l/m 0 min 0 min 0 W/m 3,2 km/h (1 Bft) 97,87 %
22.04.2020 05:02 8,7 C 7,2 C 6,7 C 69 % 1019,4 hPa 0,0 l/m 0 min 0 min 0 W/m 0,0 km/h (0 Bft) 95,74 %
22.04.2020 05:04 8,7 C 7,2 C 6,7 C 69 % 1019,4 hPa 0,0 l/m 0 min 0 min 0 W/m 3,2 km/h (1 Bft) 93,62 %
22.04.2020 05:06 8,7 C 7,2 C 6,7 C 69 % 1019,4 hPa 0,0 l/m 0 min 0 min 0 W/m 0,0 km/h (0 Bft) 97,83 %
22.04.2020 05:08 8,7 C 7,2 C 6,7 C 70 % 1019,4 hPa 0,0 l/m 0 min 0 min 0 W/m 0,0 km/h (0 Bft) 97,87 %
22.04.2020 05:10 8,7 C 7,2 C 6,7 C 70 % 1019,5 hPa 0,0 l/m 0 min 0 min 0 W/m 0,0 km/h (0 Bft) 95,74 %
22.04.2020 05:12 8,6 C 7,2 C 6,7 C 70 % 1019,4 hPa 0,0 l/m 0 min 0 min 0 W/m 0,0 km/h (0 Bft) 95,74 %
22.04.2020 05:14 8,6 C 7,2 C 6,7 C 70 % 1019,5 hPa 0,0 l/m 0 min 0 min 0 W/m 3,2 km/h (1 Bft) 95,74 %
22.04.2020 05:16 8,6 C 7,8 C 6,7 C 70 % 1019,4 hPa 0,0 l/m 0 min 0 min 0 W/m 6,4 km/h (2 Bft) 97,87 %
22.04.2020 05:18 8,6 C 7,8 C 6,7 C 70 % 1019,5 hPa 0,0 l/m 0 min 0 min 0 W/m 3,2 km/h (1 Bft) 97,83 %
22.04.2020 05:20 8,6 C 7,8 C 6,7 C 70 % 1019,5 hPa 0,0 l/m 0 min 0 min 0 W/m 0,0 km/h (0 Bft) 97,87 %
22.04.2020 05:22 8,6 C 7,2 C 6,7 C 70 % 1019,5 hPa 0,0 l/m 0 min 0 min 0 W/m 3,2 km/h (1 Bft) 97,87 %
22.04.2020 05:24 8,6 C 7,2 C 6,7 C 70 % 1019,5 hPa 0,0 l/m 0 min 0 min 0 W/m 0,0 km/h (0 Bft) 95,74 %
22.04.2020 05:26 8,6 C 7,2 C 6,7 C 70 % 1019,5 hPa 0,0 l/m 0 min 0 min 0 W/m 3,2 km/h (1 Bft) 97,87 %
22.04.2020 05:28 8,5 C 7,2 C 6,7 C 70 % 1019,5 hPa 0,0 l/m 0 min 0 min 0 W/m 0,0 km/h (0 Bft) 95,74 %
22.04.2020 05:30 8,5 C 7,2 C 6,7 C 70 % 1019,5 hPa 0,0 l/m 0 min 0 min 0 W/m 3,2 km/h (1 Bft) 95,65 %
22.04.2020 05:32 8,5 C 7,2 C 6,7 C 70 % 1019,5 hPa 0,0 l/m 0 min 0 min 0 W/m 3,2 km/h (1 Bft) 95,74 %
22.04.2020 05:34 8,5 C 7,2 C 6,7 C 70 % 1019,5 hPa 0,0 l/m 0 min 0 min 0 W/m 3,2 km/h (1 Bft) 97,87 %
22.04.2020 05:36 8,5 C 7,2 C 6,7 C 70 % 1019,5 hPa 0,0 l/m 0 min 0 min 0 W/m 3,2 km/h (1 Bft) 97,87 %
22.04.2020 05:38 8,4 C 7,2 C 6,7 C 70 % 1019,5 hPa 0,0 l/m 0 min 0 min 0 W/m 3,2 km/h (1 Bft) 97,87 %
22.04.2020 05:40 8,4 C 7,2 C 6,7 C 70 % 1019,5 hPa 0,0 l/m 0 min 0 min 0 W/m 3,2 km/h (1 Bft) 97,87 %
22.04.2020 05:42 8,4 C 7,2 C 6,7 C 71 % 1019,4 hPa 0,0 l/m 0 min 0 min 0 W/m 6,4 km/h (2 Bft) 97,83 %
22.04.2020 05:44 8,4 C 7,2 C 6,7 C 71 % 1019,5 hPa 0,0 l/m 0 min 0 min 0 W/m 9,7 km/h (2 Bft) 95,74 %
22.04.2020 05:46 8,4 C 7,2 C 6,7 C 71 % 1019,5 hPa 0,0 l/m 0 min 0 min 0 W/m 3,2 km/h (1 Bft) 97,87 %
22.04.2020 05:48 8,4 C 7,2 C 6,7 C 71 % 1019,5 hPa 0,0 l/m 0 min 0 min 0 W/m 6,4 km/h (2 Bft) 97,87 %
22.04.2020 05:50 8,4 C 7,2 C 6,7 C 71 % 1019,5 hPa 0,0 l/m 0 min 0 min 0 W/m 6,4 km/h (2 Bft) 97,87 %
22.04.2020 05:52 8,4 C 7,2 C 6,7 C 71 % 1019,5 hPa 0,0 l/m 0 min 0 min 0 W/m 6,4 km/h (2 Bft) 97,83 %
22.04.2020 05:54 8,4 C 7,2 C 6,7 C 71 % 1019,5 hPa 0,0 l/m 0 min 0 min 0 W/m 6,4 km/h (2 Bft) 97,87 %
22.04.2020 05:56 8,4 C 7,2 C 6,7 C 71 % 1019,6 hPa 0,0 l/m 0 min 0 min 0 W/m 3,2 km/h (1 Bft) 97,87 %
22.04.2020 05:58 8,4 C 7,2 C 6,7 C 71 % 1019,5 hPa 0,0 l/m 0 min 0 min 0 W/m 3,2 km/h (1 Bft) 95,74 %
22.04.2020 06:00 8,4 C 7,2 C 6,7 C 71 % 1019,6 hPa 0,0 l/m 0 min 0 min 0 W/m 9,7 km/h (2 Bft) 95,74 %
22.04.2020 06:02 8,4 C 7,2 C 6,7 C 71 % 1019,6 hPa 0,0 l/m 0 min 0 min 0 W/m 0,0 km/h (0 Bft) 100,00 %
22.04.2020 06:04 8,4 C 7,2 C 6,7 C 71 % 1019,6 hPa 0,0 l/m 0 min 0 min 0 W/m 0,0 km/h (0 Bft) 100,00 %
22.04.2020 06:08 8,3 C 7,2 C 6,7 C 71 % 1019,7 hPa 0,0 l/m 0 min 0 min 0 W/m 3,2 km/h (1 Bft) 98,92 %
22.04.2020 06:10 8,3 C 7,2 C 6,7 C 71 % 1019,7 hPa 0,0 l/m 0 min 0 min 0 W/m 3,2 km/h (1 Bft) 100,00 %
22.04.2020 06:12 8,3 C 7,2 C 6,7 C 71 % 1019,7 hPa 0,0 l/m 0 min 0 min 0 W/m 3,2 km/h (1 Bft) 100,00 %
22.04.2020 06:14 8,3 C 7,2 C 6,7 C 71 % 1019,8 hPa 0,0 l/m 0 min 0 min 0 W/m 0,0 km/h (0 Bft) 97,87 %
22.04.2020 06:16 8,3 C 7,2 C 6,7 C 71 % 1019,7 hPa 0,0 l/m 0 min 0 min 0 W/m 0,0 km/h (0 Bft) 97,83 %
22.04.2020 06:18 8,3 C 7,2 C 6,7 C 71 % 1019,7 hPa 0,0 l/m 0 min 0 min 0 W/m 3,2 km/h (1 Bft) 95,74 %
22.04.2020 06:20 8,2 C 7,2 C 6,7 C 71 % 1019,8 hPa 0,0 l/m 0 min 0 min 0 W/m 3,2 km/h (1 Bft) 95,74 %
22.04.2020 06:22 8,2 C 7,2 C 6,7 C 71 % 1019,7 hPa 0,0 l/m 0 min 0 min 0 W/m 3,2 km/h (1 Bft) 95,74 %
22.04.2020 06:24 8,2 C 7,2 C 6,1 C 71 % 1019,8 hPa 0,0 l/m 0 min 0 min 0 W/m 0,0 km/h (0 Bft) 97,87 %
22.04.2020 06:26 8,2 C 6,7 C 6,1 C 71 % 1019,8 hPa 0,0 l/m 0 min 0 min 4 W/m 0,0 km/h (0 Bft) 97,87 %
22.04.2020 06:28 8,2 C 6,7 C 6,1 C 71 % 1019,8 hPa 0,0 l/m 0 min 0 min 5 W/m 3,2 km/h (1 Bft) 97,83 %
22.04.2020 06:30 8,2 C 6,7 C 6,1 C 71 % 1019,9 hPa 0,0 l/m 0 min 0 min 5 W/m 3,2 km/h (1 Bft) 95,74 %
22.04.2020 06:32 8,1 C 6,7 C 6,1 C 71 % 1019,9 hPa 0,0 l/m 0 min 0 min 7 W/m 0,0 km/h (0 Bft) 97,87 %
22.04.2020 06:34 8,1 C 6,7 C 6,1 C 71 % 1019,9 hPa 0,0 l/m 0 min 0 min 7 W/m 0,0 km/h (0 Bft) 97,87 %
22.04.2020 06:36 8,1 C 6,7 C 6,1 C 71 % 1019,9 hPa 0,0 l/m 0 min 0 min 7 W/m 3,2 km/h (1 Bft) 97,87 %
22.04.2020 06:38 8,1 C 6,7 C 6,1 C 72 % 1019,9 hPa 0,0 l/m 0 min 0 min 9 W/m 0,0 km/h (0 Bft) 97,87 %
22.04.2020 06:40 8,1 C 6,7 C 6,1 C 71 % 1019,9 hPa 0,0 l/m 0 min 0 min 9 W/m 0,0 km/h (0 Bft) 97,83 %
22.04.2020 06:42 8,1 C 6,7 C 6,1 C 72 % 1020,0 hPa 0,0 l/m 0 min 0 min 11 W/m 0,0 km/h (0 Bft) 97,87 %
22.04.2020 06:44 8,0 C 6,7 C 6,1 C 72 % 1020,0 hPa 0,0 l/m 0 min 0 min 11 W/m 3,2 km/h (1 Bft) 97,87 %
22.04.2020 06:46 8,0 C 6,7 C 6,1 C 72 % 1020,0 hPa 0,0 l/m 0 min 0 min 12 W/m 0,0 km/h (0 Bft) 97,87 %
22.04.2020 06:48 7,9 C 6,7 C 6,1 C 72 % 1020,0 hPa 0,0 l/m 0 min 0 min 12 W/m 0,0 km/h (0 Bft) 97,87 %
22.04.2020 06:50 7,9 C 6,7 C 6,1 C 72 % 1020,0 hPa 0,0 l/m 0 min 0 min 12 W/m 0,0 km/h (0 Bft) 95,74 %
22.04.2020 06:52 7,9 C 6,7 C 6,1 C 72 % 1020,0 hPa 0,0 l/m 0 min 0 min 14 W/m 0,0 km/h (0 Bft) 97,83 %
22.04.2020 06:54 7,9 C 6,7 C 6,1 C 72 % 1020,0 hPa 0,0 l/m 0 min 0 min 14 W/m 3,2 km/h (1 Bft) 97,87 %
22.04.2020 06:56 7,9 C 6,7 C 6,1 C 72 % 1020,0 hPa 0,0 l/m 0 min 0 min 15 W/m 3,2 km/h (1 Bft) 95,74 %
22.04.2020 06:58 7,9 C 7,2 C 6,1 C 72 % 1020,0 hPa 0,0 l/m 0 min 0 min 16 W/m 3,2 km/h (1 Bft) 97,87 %
22.04.2020 07:00 7,8 C 7,2 C 6,1 C 72 % 1020,0 hPa 0,0 l/m 0 min 0 min 16 W/m 0,0 km/h (0 Bft) 97,87 %
22.04.2020 07:02 7,9 C 7,2 C 6,1 C 72 % 1020,1 hPa 0,0 l/m 0 min 0 min 18 W/m 6,4 km/h (2 Bft) 97,83 %
22.04.2020 07:04 7,9 C 7,2 C 6,1 C 72 % 1020,0 hPa 0,0 l/m 0 min 0 min 18 W/m 3,2 km/h (1 Bft) 97,87 %
22.04.2020 07:06 7,8 C 7,2 C 6,1 C 72 % 1020,0 hPa 0,0 l/m 0 min 0 min 18 W/m 0,0 km/h (0 Bft) 93,62 %
22.04.2020 07:08 7,9 C 7,2 C 6,7 C 72 % 1020,0 hPa 0,0 l/m 0 min 0 min 19 W/m 0,0 km/h (0 Bft) 97,87 %
22.04.2020 07:10 7,9 C 7,2 C 6,7 C 72 % 1020,0 hPa 0,0 l/m 0 min 0 min 19 W/m 0,0 km/h (0 Bft) 97,87 %
22.04.2020 07:12 7,9 C 7,2 C 6,7 C 73 % 1020,1 hPa 0,0 l/m 0 min 0 min 20 W/m 0,0 km/h (0 Bft) 97,87 %
22.04.2020 07:14 7,9 C 7,8 C 6,7 C 73 % 1020,1 hPa 0,0 l/m 0 min 0 min 21 W/m 3,2 km/h (1 Bft) 100,00 %
22.04.2020 07:16 7,9 C 7,8 C 6,7 C 73 % 1020,1 hPa 0,0 l/m 0 min 0 min 21 W/m 6,4 km/h (2 Bft) 100,00 %
22.04.2020 07:18 7,9 C 7,8 C 6,7 C 73 % 1020,1 hPa 0,0 l/m 0 min 0 min 22 W/m 0,0 km/h (0 Bft) 95,74 %
22.04.2020 07:20 7,9 C 7,8 C 6,7 C 73 % 1020,1 hPa 0,0 l/m 0 min 0 min 23 W/m 0,0 km/h (0 Bft) 93,62 %
22.04.2020 07:22 7,9 C 7,8 C 6,7 C 73 % 1020,1 hPa 0,0 l/m 0 min 0 min 25 W/m 0,0 km/h (0 Bft) 95,74 %
22.04.2020 07:24 8,0 C 7,8 C 6,7 C 73 % 1020,1 hPa 0,0 l/m 0 min 0 min 29 W/m 0,0 km/h (0 Bft) 97,87 %
22.04.2020 07:26 8,0 C 7,8 C 6,7 C 73 % 1020,2 hPa 0,0 l/m 0 min 0 min 29 W/m 0,0 km/h (0 Bft) 95,65 %
22.04.2020 07:28 8,0 C 7,8 C 6,7 C 73 % 1020,2 hPa 0,0 l/m 0 min 0 min 31 W/m 0,0 km/h (0 Bft) 91,49 %
22.04.2020 07:30 8,1 C 7,8 C 6,7 C 73 % 1020,2 hPa 0,0 l/m 0 min 0 min 31 W/m 3,2 km/h (1 Bft) 95,74 %
22.04.2020 07:32 8,1 C 7,8 C 6,7 C 73 % 1020,2 hPa 0,0 l/m 0 min 0 min 27 W/m 3,2 km/h (1 Bft) 97,87 %
22.04.2020 07:34 8,1 C 7,8 C 6,7 C 73 % 1020,2 hPa 0,0 l/m 0 min 0 min 26 W/m 0,0 km/h (0 Bft) 95,74 %
22.04.2020 07:36 8,1 C 7,8 C 6,7 C 73 % 1020,2 hPa 0,0 l/m 0 min 0 min 27 W/m 0,0 km/h (0 Bft) 95,74 %
22.04.2020 07:38 8,1 C 8,3 C 6,7 C 73 % 1020,2 hPa 0,0 l/m 0 min 0 min 28 W/m 0,0 km/h (0 Bft) 91,30 %
22.04.2020 07:40 8,1 C 8,3 C 7,2 C 73 % 1020,2 hPa 0,0 l/m 0 min 0 min 28 W/m 0,0 km/h (0 Bft) 95,74 %
22.04.2020 07:44 8,2 C 8,3 C 7,2 C 73 % 1020,3 hPa 0,0 l/m 0 min 0 min 30 W/m 0,0 km/h (0 Bft) 92,31 %
22.04.2020 07:46 8,2 C 8,3 C 7,2 C 73 % 1020,3 hPa 0,0 l/m 0 min 0 min 30 W/m 0,0 km/h (0 Bft) 91,49 %
22.04.2020 07:48 8,3 C 8,3 C 7,2 C 73 % 1020,3 hPa 0,0 l/m 0 min 0 min 30 W/m 0,0 km/h (0 Bft) 95,74 %
22.04.2020 07:50 8,3 C 8,3 C 7,2 C 73 % 1020,3 hPa 0,0 l/m 0 min 0 min 31 W/m 0,0 km/h (0 Bft) 97,83 %
22.04.2020 07:52 8,4 C 8,9 C 7,2 C 73 % 1020,3 hPa 0,0 l/m 0 min 0 min 32 W/m 3,2 km/h (1 Bft) 95,74 %
22.04.2020 07:54 8,4 C 8,9 C 7,2 C 73 % 1020,3 hPa 0,0 l/m 0 min 0 min 32 W/m 0,0 km/h (0 Bft) 93,62 %
22.04.2020 07:56 8,4 C 8,9 C 7,2 C 73 % 1020,4 hPa 0,0 l/m 0 min 0 min 32 W/m 0,0 km/h (0 Bft) 95,74 %
22.04.2020 07:58 8,5 C 8,9 C 7,2 C 72 % 1020,4 hPa 0,0 l/m 0 min 0 min 33 W/m 0,0 km/h (0 Bft) 93,62 %
22.04.2020 08:00 8,5 C 8,9 C 7,2 C 72 % 1020,4 hPa 0,0 l/m 0 min 0 min 33 W/m 0,0 km/h (0 Bft) 97,87 %
22.04.2020 08:02 8,6 C 8,9 C 7,2 C 72 % 1020,4 hPa 0,0 l/m 0 min 0 min 33 W/m 0,0 km/h (0 Bft) 93,48 %
22.04.2020 08:04 8,6 C 8,9 C 7,2 C 72 % 1020,4 hPa 0,0 l/m 0 min 0 min 33 W/m 0,0 km/h (0 Bft) 97,87 %
22.04.2020 08:06 8,6 C 8,9 C 7,2 C 73 % 1020,4 hPa 0,0 l/m 0 min 0 min 35 W/m 3,2 km/h (1 Bft) 97,87 %
22.04.2020 08:08 8,7 C 9,4 C 7,8 C 72 % 1020,5 hPa 0,0 l/m 0 min 0 min 35 W/m 6,4 km/h (2 Bft) 97,87 %
22.04.2020 08:10 8,8 C 9,4 C 7,8 C 72 % 1020,5 hPa 0,0 l/m 0 min 0 min 35 W/m 3,2 km/h (1 Bft) 97,87 %
22.04.2020 08:12 8,8 C 9,4 C 7,8 C 72 % 1020,5 hPa 0,0 l/m 0 min 0 min 37 W/m 3,2 km/h (1 Bft) 95,65 %
22.04.2020 08:14 8,9 C 10,0 C 8,3 C 72 % 1020,5 hPa 0,0 l/m 0 min 0 min 37 W/m 6,4 km/h (2 Bft) 97,87 %
22.04.2020 08:16 9,0 C 10,0 C 8,3 C 72 % 1020,5 hPa 0,0 l/m 0 min 0 min 37 W/m 3,2 km/h (1 Bft) 97,87 %
22.04.2020 08:18 9,1 C 10,0 C 8,3 C 71 % 1020,5 hPa 0,0 l/m 0 min 0 min 39 W/m 6,4 km/h (2 Bft) 100,00 %
22.04.2020 08:20 9,2 C 10,0 C 8,3 C 71 % 1020,5 hPa 0,0 l/m 0 min 0 min 39 W/m 3,2 km/h (1 Bft) 97,87 %
22.04.2020 08:25 9,4 C 10,0 C 8,9 C 71 % 1020,4 hPa 0,0 l/m 0 min 0 min 39 W/m 6,4 km/h (2 Bft) 97,44 %
22.04.2020 08:26 9,4 C 10,0 C 8,9 C 70 % 1020,4 hPa 0,0 l/m 0 min 0 min 40 W/m 6,4 km/h (2 Bft) 100,00 %
22.04.2020 08:28 9,6 C 10,0 C 8,9 C 70 % 1020,4 hPa 0,0 l/m 0 min 0 min 40 W/m 9,7 km/h (2 Bft) 100,00 %
22.04.2020 08:30 9,6 C 10,6 C 8,9 C 70 % 1020,4 hPa 0,0 l/m 0 min 0 min 41 W/m 6,4 km/h (2 Bft) 100,00 %
22.04.2020 08:32 9,7 C 10,6 C 8,9 C 69 % 1020,4 hPa 0,0 l/m 0 min 0 min 42 W/m 9,7 km/h (2 Bft) 97,87 %
22.04.2020 08:34 9,8 C 10,6 C 8,9 C 69 % 1020,4 hPa 0,0 l/m 0 min 0 min 42 W/m 3,2 km/h (1 Bft) 100,00 %
22.04.2020 08:36 9,9 C 10,6 C 8,9 C 69 % 1020,4 hPa 0,0 l/m 0 min 0 min 42 W/m 6,4 km/h (2 Bft) 97,83 %
22.04.2020 08:38 10,0 C 10,6 C 9,4 C 69 % 1020,4 hPa 0,0 l/m 0 min 0 min 42 W/m 6,4 km/h (2 Bft) 100,00 %
22.04.2020 08:40 10,1 C 10,6 C 9,4 C 68 % 1020,4 hPa 0,0 l/m 0 min 0 min 44 W/m 6,4 km/h (2 Bft) 100,00 %
22.04.2020 08:42 10,1 C 11,1 C 9,4 C 68 % 1020,4 hPa 0,0 l/m 0 min 0 min 44 W/m 6,4 km/h (2 Bft) 97,87 %
22.04.2020 08:44 10,2 C 12,8 C 9,4 C 68 % 1020,4 hPa 0,0 l/m 0 min 0 min 44 W/m 6,4 km/h (2 Bft) 100,00 %
22.04.2020 08:46 10,3 C 14,4 C 9,4 C 68 % 1020,4 hPa 0,0 l/m 0 min 0 min 66 W/m 3,2 km/h (1 Bft) 100,00 %
22.04.2020 08:48 10,3 C 15,6 C 9,4 C 68 % 1020,5 hPa 0,0 l/m 2 min 0 min 236 W/m 6,4 km/h (2 Bft) 100,00 %
22.04.2020 08:50 10,4 C 16,7 C 9,4 C 68 % 1020,5 hPa 0,0 l/m 2 min 0 min 342 W/m 6,4 km/h (2 Bft) 100,00 %
22.04.2020 08:52 10,6 C 16,7 C 10,0 C 67 % 1020,5 hPa 0,0 l/m 2 min 0 min 347 W/m 9,7 km/h (2 Bft) 97,87 %
22.04.2020 08:54 10,7 C 17,2 C 10,0 C 67 % 1020,5 hPa 0,0 l/m 2 min 0 min 353 W/m 3,2 km/h (1 Bft) 100,00 %
22.04.2020 08:56 10,9 C 17,2 C 10,0 C 67 % 1020,5 hPa 0,0 l/m 2 min 0 min 360 W/m 3,2 km/h (1 Bft) 57,45 %
22.04.2020 08:58 11,1 C 17,8 C 10,6 C 66 % 1020,5 hPa 0,0 l/m 2 min 0 min 367 W/m 9,7 km/h (2 Bft) 100,00 %
22.04.2020 09:00 11,2 C 17,2 C 10,6 C 65 % 1020,5 hPa 0,0 l/m 2 min 0 min 370 W/m 6,4 km/h (2 Bft) 100,00 %
22.04.2020 09:02 11,4 C 17,2 C 10,6 C 65 % 1020,5 hPa 0,0 l/m 2 min 0 min 298 W/m 9,7 km/h (2 Bft) 100,00 %
22.04.2020 09:04 11,6 C 17,2 C 11,1 C 65 % 1020,5 hPa 0,0 l/m 2 min 0 min 341 W/m 3,2 km/h (1 Bft) 100,00 %
22.04.2020 09:06 11,8 C 16,7 C 11,1 C 64 % 1020,5 hPa 0,0 l/m 2 min 0 min 390 W/m 9,7 km/h (2 Bft) 100,00 %
22.04.2020 09:08 12,0 C 16,7 C 11,7 C 64 % 1020,5 hPa 0,0 l/m 2 min 0 min 386 W/m 6,4 km/h (2 Bft) 100,00 %
22.04.2020 09:10 12,2 C 17,2 C 12,2 C 63 % 1020,5 hPa 0,0 l/m 2 min 0 min 394 W/m 9,7 km/h (2 Bft) 100,00 %
22.04.2020 09:12 12,3 C 17,8 C 12,8 C 62 % 1020,5 hPa 0,0 l/m 2 min 0 min 411 W/m 9,7 km/h (2 Bft) 100,00 %
22.04.2020 09:14 12,6 C 17,8 C 15,0 C 62 % 1020,6 hPa 0,0 l/m 2 min 0 min 418 W/m 16,1 km/h (3 Bft) 97,87 %
22.04.2020 09:16 12,7 C 17,8 C 17,2 C 61 % 1020,6 hPa 0,0 l/m 2 min 0 min 423 W/m 9,7 km/h (2 Bft) 97,87 %
22.04.2020 09:18 12,8 C 18,3 C 18,9 C 61 % 1020,6 hPa 0,0 l/m 2 min 0 min 430 W/m 3,2 km/h (1 Bft) 97,87 %
22.04.2020 09:20 13,1 C 18,3 C 20,0 C 60 % 1020,5 hPa 0,0 l/m 2 min 0 min 435 W/m 19,3 km/h (3 Bft) 97,87 %
22.04.2020 09:22 13,2 C 18,3 C 20,6 C 59 % 1020,5 hPa 0,0 l/m 2 min 0 min 442 W/m 16,1 km/h (3 Bft) 97,83 %
22.04.2020 09:24 13,4 C 18,3 C 21,1 C 59 % 1020,5 hPa 0,0 l/m 2 min 0 min 448 W/m 9,7 km/h (2 Bft) 97,87 %
22.04.2020 09:26 13,6 C 18,9 C 21,1 C 59 % 1020,5 hPa 0,0 l/m 2 min 0 min 454 W/m 9,7 km/h (2 Bft) 97,87 %
22.04.2020 09:28 13,7 C 18,3 C 21,1 C 58 % 1020,5 hPa 0,0 l/m 2 min 0 min 459 W/m 9,7 km/h (2 Bft) 97,87 %
22.04.2020 09:30 13,8 C 18,3 C 21,7 C 57 % 1020,5 hPa 0,0 l/m 2 min 0 min 467 W/m 9,7 km/h (2 Bft) 97,87 %
22.04.2020 09:32 13,9 C 18,9 C 22,2 C 58 % 1020,5 hPa 0,0 l/m 2 min 0 min 472 W/m 9,7 km/h (2 Bft) 95,74 %
22.04.2020 09:34 14,1 C 18,9 C 22,2 C 57 % 1020,5 hPa 0,0 l/m 2 min 0 min 476 W/m 9,7 km/h (2 Bft) 95,65 %
22.04.2020 09:36 14,2 C 18,9 C 22,2 C 57 % 1020,5 hPa 0,0 l/m 2 min 0 min 483 W/m 12,9 km/h (3 Bft) 95,74 %
22.04.2020 09:38 14,3 C 19,4 C 22,2 C 57 % 1020,5 hPa 0,0 l/m 2 min 0 min 491 W/m 9,7 km/h (2 Bft) 93,62 %
22.04.2020 09:40 14,3 C 18,9 C 22,2 C 56 % 1020,5 hPa 0,0 l/m 2 min 0 min 496 W/m 22,5 km/h (4 Bft) 93,62 %
22.04.2020 09:42 14,4 C 18,9 C 21,7 C 55 % 1020,5 hPa 0,0 l/m 2 min 0 min 502 W/m 19,3 km/h (3 Bft) 95,74 %
22.04.2020 09:44 14,6 C 19,4 C 22,8 C 56 % 1020,5 hPa 0,0 l/m 2 min 0 min 507 W/m 6,4 km/h (2 Bft) 95,74 %
22.04.2020 09:46 14,7 C 19,4 C 22,8 C 56 % 1020,5 hPa 0,0 l/m 2 min 0 min 513 W/m 19,3 km/h (3 Bft) 93,48 %
22.04.2020 09:48 14,8 C 19,4 C 22,8 C 55 % 1020,5 hPa 0,0 l/m 2 min 0 min 520 W/m 16,1 km/h (3 Bft) 95,74 %
22.04.2020 09:50 14,9 C 18,9 C 22,2 C 55 % 1020,5 hPa 0,0 l/m 2 min 0 min 525 W/m 12,9 km/h (3 Bft) 95,74 %
22.04.2020 09:52 15,1 C 19,4 C 22,8 C 55 % 1020,5 hPa 0,0 l/m 2 min 0 min 529 W/m 9,7 km/h (2 Bft) 95,74 %
22.04.2020 09:54 15,1 C 20,0 C 23,3 C 55 % 1020,5 hPa 0,0 l/m 2 min 0 min 535 W/m 12,9 km/h (3 Bft) 93,62 %
22.04.2020 09:56 15,2 C 19,4 C 22,8 C 54 % 1020,5 hPa 0,0 l/m 2 min 0 min 541 W/m 19,3 km/h (3 Bft) 95,74 %
22.04.2020 09:58 15,3 C 19,4 C 22,8 C 53 % 1020,5 hPa 0,0 l/m 2 min 0 min 547 W/m 12,9 km/h (3 Bft) 97,83 %
22.04.2020 10:00 15,3 C 20,0 C 23,3 C 54 % 1020,6 hPa 0,0 l/m 2 min 0 min 551 W/m 12,9 km/h (3 Bft) 97,87 %
22.04.2020 10:02 15,4 C 20,0 C 22,8 C 54 % 1020,5 hPa 0,0 l/m 2 min 0 min 557 W/m 12,9 km/h (3 Bft) 97,87 %
22.04.2020 10:04 15,5 C 19,4 C 22,8 C 52 % 1020,5 hPa 0,0 l/m 2 min 0 min 564 W/m 22,5 km/h (4 Bft) 95,74 %
22.04.2020 10:06 15,6 C 20,0 C 22,8 C 52 % 1020,6 hPa 0,0 l/m 2 min 0 min 568 W/m 12,9 km/h (3 Bft) 97,87 %
22.04.2020 10:08 15,6 C 20,0 C 22,8 C 52 % 1020,6 hPa 0,0 l/m 2 min 0 min 573 W/m 12,9 km/h (3 Bft) 97,87 %
22.04.2020 10:10 15,7 C 20,0 C 23,3 C 52 % 1020,6 hPa 0,0 l/m 2 min 0 min 578 W/m 12,9 km/h (3 Bft) 100,00 %
22.04.2020 10:12 15,8 C 20,6 C 23,3 C 53 % 1020,6 hPa 0,0 l/m 2 min 0 min 584 W/m 9,7 km/h (2 Bft) 97,87 %
22.04.2020 10:14 15,8 C 21,1 C 23,3 C 53 % 1020,5 hPa 0,0 l/m 2 min 0 min 589 W/m 16,1 km/h (3 Bft) 100,00 %
22.04.2020 10:16 15,9 C 21,1 C 23,9 C 52 % 1020,5 hPa 0,0 l/m 2 min 0 min 596 W/m 9,7 km/h (2 Bft) 97,87 %
22.04.2020 10:18 16,1 C 21,1 C 23,3 C 52 % 1020,5 hPa 0,0 l/m 2 min 0 min 599 W/m 12,9 km/h (3 Bft) 100,00 %
22.04.2020 10:20 16,1 C 21,7 C 23,3 C 52 % 1020,4 hPa 0,0 l/m 2 min 0 min 606 W/m 9,7 km/h (2 Bft) 97,83 %
22.04.2020 10:22 16,2 C 21,1 C 23,3 C 51 % 1020,5 hPa 0,0 l/m 2 min 0 min 612 W/m 16,1 km/h (3 Bft) 97,87 %
22.04.2020 10:24 16,3 C 21,7 C 23,9 C 51 % 1020,4 hPa 0,0 l/m 2 min 0 min 617 W/m 6,4 km/h (2 Bft) 100,00 %
22.04.2020 10:26 16,3 C 21,7 C 23,9 C 52 % 1020,4 hPa 0,0 l/m 2 min 0 min 621 W/m 6,4 km/h (2 Bft) 100,00 %
22.04.2020 10:28 16,4 C 21,1 C 23,3 C 52 % 1020,4 hPa 0,0 l/m 2 min 0 min 627 W/m 12,9 km/h (3 Bft) 100,00 %
22.04.2020 10:30 16,6 C 21,7 C 23,9 C 52 % 1020,4 hPa 0,0 l/m 2 min 0 min 630 W/m 12,9 km/h (3 Bft) 100,00 %
22.04.2020 10:32 16,6 C 21,1 C 23,9 C 50 % 1020,5 hPa 0,0 l/m 2 min 0 min 635 W/m 12,9 km/h (3 Bft) 100,00 %
22.04.2020 10:34 16,7 C 21,1 C 23,3 C 50 % 1020,4 hPa 0,0 l/m 2 min 0 min 641 W/m 16,1 km/h (3 Bft) 100,00 %
22.04.2020 10:36 16,7 C 21,7 C 23,3 C 50 % 1020,4 hPa 0,0 l/m 2 min 0 min 646 W/m 9,7 km/h (2 Bft) 100,00 %
22.04.2020 10:38 16,8 C 21,7 C 23,9 C 50 % 1020,4 hPa 0,0 l/m 2 min 0 min 650 W/m 22,5 km/h (4 Bft) 100,00 %
22.04.2020 10:40 16,8 C 21,7 C 23,9 C 50 % 1020,4 hPa 0,0 l/m 2 min 0 min 657 W/m 16,1 km/h (3 Bft) 100,00 %
22.04.2020 10:42 16,9 C 21,1 C 23,3 C 48 % 1020,4 hPa 0,0 l/m 2 min 0 min 661 W/m 16,1 km/h (3 Bft) 100,00 %
22.04.2020 10:44 16,9 C 22,2 C 23,9 C 50 % 1020,4 hPa 0,0 l/m 2 min 0 min 666 W/m 6,4 km/h (2 Bft) 100,00 %
22.04.2020 10:46 17,0 C 22,8 C 24,4 C 51 % 1020,4 hPa 0,0 l/m 2 min 0 min 669 W/m 9,7 km/h (2 Bft) 100,00 %
22.04.2020 10:48 17,1 C 21,7 C 23,9 C 50 % 1020,4 hPa 0,0 l/m 2 min 0 min 674 W/m 16,1 km/h (3 Bft) 100,00 %
22.04.2020 10:50 17,2 C 22,2 C 23,9 C 49 % 1020,4 hPa 0,0 l/m 2 min 0 min 679 W/m 12,9 km/h (3 Bft) 100,00 %
22.04.2020 10:52 17,3 C 21,7 C 23,3 C 49 % 1020,4 hPa 0,0 l/m 2 min 0 min 682 W/m 9,7 km/h (2 Bft) 100,00 %
22.04.2020 10:54 17,3 C 21,7 C 23,9 C 49 % 1020,3 hPa 0,0 l/m 2 min 0 min 687 W/m 9,7 km/h (2 Bft) 100,00 %
22.04.2020 10:56 17,4 C 22,2 C 23,9 C 49 % 1020,3 hPa 0,0 l/m 2 min 0 min 692 W/m 12,9 km/h (3 Bft) 100,00 %
22.04.2020 10:58 17,4 C 22,2 C 24,4 C 49 % 1020,4 hPa 0,0 l/m 2 min 0 min 696 W/m 12,9 km/h (3 Bft) 100,00 %
22.04.2020 11:00 17,5 C 22,2 C 23,9 C 49 % 1020,4 hPa 0,0 l/m 2 min 0 min 700 W/m 12,9 km/h (3 Bft) 97,87 %
22.04.2020 11:02 17,6 C 22,2 C 23,9 C 48 % 1020,3 hPa 0,0 l/m 2 min 0 min 704 W/m 16,1 km/h (3 Bft) 100,00 %
22.04.2020 11:04 17,6 C 22,2 C 23,9 C 48 % 1020,4 hPa 0,0 l/m 2 min 0 min 708 W/m 12,9 km/h (3 Bft) 100,00 %
22.04.2020 11:06 17,7 C 22,8 C 23,3 C 49 % 1020,3 hPa 0,0 l/m 2 min 0 min 712 W/m 12,9 km/h (3 Bft) 100,00 %
22.04.2020 11:08 17,7 C 22,2 C 21,1 C 48 % 1020,4 hPa 0,0 l/m 2 min 0 min 717 W/m 16,1 km/h (3 Bft) 97,87 %
22.04.2020 11:10 17,7 C 22,2 C 19,4 C 48 % 1020,3 hPa 0,0 l/m 2 min 0 min 721 W/m 9,7 km/h (2 Bft) 100,00 %
22.04.2020 11:12 17,8 C 22,2 C 18,9 C 48 % 1020,4 hPa 0,0 l/m 2 min 0 min 725 W/m 19,3 km/h (3 Bft) 100,00 %
22.04.2020 11:14 17,8 C 22,8 C 18,3 C 49 % 1020,4 hPa 0,0 l/m 2 min 0 min 728 W/m 16,1 km/h (3 Bft) 100,00 %
22.04.2020 11:16 17,9 C 22,8 C 17,8 C 48 % 1020,4 hPa 0,0 l/m 2 min 0 min 732 W/m 19,3 km/h (3 Bft) 97,87 %
22.04.2020 11:18 17,9 C 22,8 C 17,2 C 48 % 1020,4 hPa 0,0 l/m 2 min 0 min 737 W/m 19,3 km/h (3 Bft) 100,00 %
22.04.2020 11:20 17,9 C 22,8 C 17,8 C 48 % 1020,4 hPa 0,0 l/m 2 min 0 min 740 W/m 12,9 km/h (3 Bft) 100,00 %
22.04.2020 11:22 18,1 C 23,3 C 17,8 C 48 % 1020,4 hPa 0,0 l/m 2 min 0 min 744 W/m 6,4 km/h (2 Bft) 100,00 %
22.04.2020 11:24 18,1 C 23,9 C 17,8 C 49 % 1020,4 hPa 0,0 l/m 2 min 0 min 746 W/m 12,9 km/h (3 Bft) 100,00 %
22.04.2020 11:26 18,2 C 23,9 C 17,8 C 48 % 1020,4 hPa 0,0 l/m 2 min 0 min 751 W/m 9,7 km/h (2 Bft) 100,00 %
22.04.2020 11:28 18,3 C 23,9 C 17,8 C 48 % 1020,3 hPa 0,0 l/m 2 min 0 min 756 W/m 16,1 km/h (3 Bft) 100,00 %
22.04.2020 11:30 18,3 C 23,3 C 17,8 C 47 % 1020,3 hPa 0,0 l/m 2 min 0 min 756 W/m 19,3 km/h (3 Bft) 100,00 %
22.04.2020 11:32 18,3 C 23,3 C 17,8 C 47 % 1020,3 hPa 0,0 l/m 2 min 0 min 762 W/m 19,3 km/h (3 Bft) 97,87 %
22.04.2020 11:34 18,4 C 23,3 C 17,8 C 48 % 1020,3 hPa 0,0 l/m 2 min 0 min 767 W/m 12,9 km/h (3 Bft) 100,00 %
22.04.2020 11:36 18,5 C 23,9 C 17,8 C 47 % 1020,3 hPa 0,0 l/m 2 min 0 min 768 W/m 12,9 km/h (3 Bft) 100,00 %
22.04.2020 11:38 18,6 C 23,9 C 17,8 C 47 % 1020,3 hPa 0,0 l/m 2 min 0 min 773 W/m 16,1 km/h (3 Bft) 100,00 %
22.04.2020 11:40 18,7 C 24,4 C 17,8 C 47 % 1020,3 hPa 0,0 l/m 2 min 0 min 777 W/m 16,1 km/h (3 Bft) 97,87 %
22.04.2020 11:42 18,7 C 23,9 C 17,8 C 47 % 1020,2 hPa 0,0 l/m 2 min 0 min 782 W/m 12,9 km/h (3 Bft) 97,83 %
22.04.2020 11:44 18,8 C 24,4 C 18,3 C 47 % 1020,2 hPa 0,0 l/m 2 min 0 min 785 W/m 9,7 km/h (2 Bft) 100,00 %
22.04.2020 11:46 18,8 C 23,9 C 18,3 C 47 % 1020,3 hPa 0,0 l/m 2 min 0 min 789 W/m 16,1 km/h (3 Bft) 100,00 %
22.04.2020 11:48 18,9 C 23,9 C 18,3 C 46 % 1020,3 hPa 0,0 l/m 2 min 0 min 792 W/m 19,3 km/h (3 Bft) 100,00 %
22.04.2020 11:50 18,9 C 23,3 C 18,3 C 46 % 1020,3 hPa 0,0 l/m 2 min 0 min 794 W/m 16,1 km/h (3 Bft) 100,00 %
22.04.2020 11:52 18,9 C 23,9 C 18,3 C 47 % 1020,2 hPa 0,0 l/m 2 min 0 min 798 W/m 12,9 km/h (3 Bft) 100,00 %
22.04.2020 11:54 19,0 C 24,4 C 18,3 C 47 % 1020,2 hPa 0,0 l/m 2 min 0 min 800 W/m 12,9 km/h (3 Bft) 100,00 %
22.04.2020 11:56 19,1 C 25,0 C 18,3 C 47 % 1020,2 hPa 0,0 l/m 2 min 0 min 802 W/m 12,9 km/h (3 Bft) 95,74 %
22.04.2020 11:58 19,2 C 25,0 C 18,3 C 47 % 1020,1 hPa 0,0 l/m 2 min 0 min 806 W/m 9,7 km/h (2 Bft) 93,62 %
22.04.2020 12:00 19,3 C 25,0 C 18,3 C 47 % 1020,1 hPa 0,0 l/m 2 min 0 min 810 W/m 12,9 km/h (3 Bft) 97,87 %
22.04.2020 12:02 19,3 C 23,9 C 18,3 C 45 % 1020,1 hPa 0,0 l/m 2 min 0 min 810 W/m 19,3 km/h (3 Bft) 95,74 %
22.04.2020 12:04 19,3 C 24,4 C 18,3 C 45 % 1020,0 hPa 0,0 l/m 2 min 0 min 814 W/m 16,1 km/h (3 Bft) 95,74 %
22.04.2020 12:08 19,6 C 25,0 C 18,9 C 45 % 1020,0 hPa 0,0 l/m 4 min 0 min 818 W/m 22,5 km/h (4 Bft) 94,62 %
22.04.2020 12:10 19,6 C 25,6 C 18,9 C 45 % 1020,0 hPa 0,0 l/m 2 min 0 min 821 W/m 12,9 km/h (3 Bft) 95,74 %
22.04.2020 12:12 19,7 C 26,1 C 18,9 C 46 % 1020,0 hPa 0,0 l/m 2 min 0 min 823 W/m 9,7 km/h (2 Bft) 95,74 %
22.04.2020 12:14 19,7 C 25,6 C 18,9 C 46 % 1019,9 hPa 0,0 l/m 2 min 0 min 828 W/m 19,3 km/h (3 Bft) 91,49 %
22.04.2020 12:16 19,8 C 25,6 C 19,4 C 46 % 1019,9 hPa 0,0 l/m 2 min 0 min 831 W/m 19,3 km/h (3 Bft) 93,62 %
22.04.2020 12:18 19,9 C 25,0 C 18,9 C 45 % 1019,9 hPa 0,0 l/m 2 min 0 min 834 W/m 16,1 km/h (3 Bft) 93,48 %
22.04.2020 12:20 19,9 C 25,6 C 19,4 C 46 % 1019,9 hPa 0,0 l/m 2 min 0 min 836 W/m 19,3 km/h (3 Bft) 95,74 %
22.04.2020 12:22 20,0 C 26,1 C 19,4 C 46 % 1019,9 hPa 0,0 l/m 2 min 0 min 838 W/m 12,9 km/h (3 Bft) 93,62 %
22.04.2020 12:24 20,1 C 25,6 C 19,4 C 44 % 1019,9 hPa 0,0 l/m 2 min 0 min 839 W/m 19,3 km/h (3 Bft) 93,62 %
22.04.2020 12:26 20,2 C 25,6 C 19,4 C 44 % 1019,9 hPa 0,0 l/m 2 min 0 min 839 W/m 12,9 km/h (3 Bft) 91,49 %
22.04.2020 12:28 20,3 C 26,1 C 20,0 C 45 % 1019,8 hPa 0,0 l/m 2 min 0 min 843 W/m 12,9 km/h (3 Bft) 95,65 %
22.04.2020 12:30 20,3 C 26,1 C 20,0 C 44 % 1019,8 hPa 0,0 l/m 2 min 0 min 845 W/m 9,7 km/h (2 Bft) 95,74 %
22.04.2020 12:32 20,5 C 26,1 C 20,0 C 45 % 1019,9 hPa 0,0 l/m 2 min 0 min 848 W/m 12,9 km/h (3 Bft) 89,36 %
22.04.2020 12:34 20,6 C 26,1 C 20,0 C 44 % 1019,8 hPa 0,0 l/m 2 min 0 min 848 W/m 16,1 km/h (3 Bft) 93,62 %
22.04.2020 12:36 20,6 C 25,6 C 20,0 C 44 % 1019,8 hPa 0,0 l/m 2 min 0 min 849 W/m 16,1 km/h (3 Bft) 89,36 %
22.04.2020 12:38 20,7 C 25,6 C 20,0 C 44 % 1019,8 hPa 0,0 l/m 2 min 0 min 851 W/m 12,9 km/h (3 Bft) 91,49 %
22.04.2020 12:40 20,7 C 25,6 C 20,0 C 43 % 1019,7 hPa 0,0 l/m 2 min 0 min 854 W/m 16,1 km/h (3 Bft) 93,48 %
22.04.2020 12:42 20,7 C 25,6 C 20,0 C 43 % 1019,7 hPa 0,0 l/m 2 min 0 min 856 W/m 12,9 km/h (3 Bft) 95,74 %
22.04.2020 12:44 20,7 C 25,6 C 20,0 C 43 % 1019,7 hPa 0,0 l/m 2 min 0 min 857 W/m 12,9 km/h (3 Bft) 89,36 %
22.04.2020 12:46 20,8 C 25,6 C 20,6 C 44 % 1019,7 hPa 0,0 l/m 2 min 0 min 860 W/m 16,1 km/h (3 Bft) 95,74 %
22.04.2020 12:48 20,8 C 26,1 C 20,6 C 44 % 1019,7 hPa 0,0 l/m 2 min 0 min 859 W/m 9,7 km/h (2 Bft) 95,74 %
22.04.2020 12:50 20,8 C 26,1 C 20,6 C 43 % 1019,6 hPa 0,0 l/m 2 min 0 min 862 W/m 19,3 km/h (3 Bft) 89,36 %
22.04.2020 12:52 20,8 C 25,6 C 20,6 C 43 % 1019,6 hPa 0,0 l/m 2 min 0 min 865 W/m 16,1 km/h (3 Bft) 95,65 %
22.04.2020 12:54 20,9 C 26,1 C 20,6 C 44 % 1019,7 hPa 0,0 l/m 2 min 0 min 867 W/m 12,9 km/h (3 Bft) 95,74 %
22.04.2020 12:56 20,9 C 25,6 C 20,6 C 42 % 1019,7 hPa 0,0 l/m 2 min 0 min 869 W/m 19,3 km/h (3 Bft) 95,74 %
22.04.2020 12:58 20,9 C 25,6 C 20,6 C 43 % 1019,6 hPa 0,0 l/m 2 min 0 min 868 W/m 12,9 km/h (3 Bft) 97,87 %
22.04.2020 13:00 20,9 C 26,1 C 20,6 C 43 % 1019,6 hPa 0,0 l/m 2 min 0 min 872 W/m 12,9 km/h (3 Bft) 95,74 %
22.04.2020 13:02 20,9 C 25,6 C 20,6 C 42 % 1019,6 hPa 0,0 l/m 2 min 0 min 874 W/m 16,1 km/h (3 Bft) 97,87 %
22.04.2020 13:04 21,0 C 25,6 C 20,6 C 42 % 1019,6 hPa 0,0 l/m 2 min 0 min 874 W/m 22,5 km/h (4 Bft) 97,83 %
22.04.2020 13:06 21,0 C 25,6 C 20,6 C 42 % 1019,5 hPa 0,0 l/m 2 min 0 min 874 W/m 16,1 km/h (3 Bft) 97,87 %
22.04.2020 13:08 21,1 C 26,1 C 21,1 C 42 % 1019,5 hPa 0,0 l/m 2 min 0 min 876 W/m 16,1 km/h (3 Bft) 97,87 %
22.04.2020 13:10 21,1 C 26,1 C 21,1 C 43 % 1019,6 hPa 0,0 l/m 2 min 0 min 874 W/m 16,1 km/h (3 Bft) 95,74 %
22.04.2020 13:12 21,1 C 26,1 C 21,1 C 42 % 1019,5 hPa 0,0 l/m 2 min 0 min 878 W/m 19,3 km/h (3 Bft) 95,74 %
22.04.2020 13:14 21,2 C 26,7 C 21,1 C 42 % 1019,5 hPa 0,0 l/m 2 min 0 min 878 W/m 12,9 km/h (3 Bft) 97,87 %
22.04.2020 13:16 21,2 C 26,1 C 21,7 C 42 % 1019,5 hPa 0,0 l/m 2 min 0 min 878 W/m 22,5 km/h (4 Bft) 93,48 %
22.04.2020 13:18 21,3 C 25,6 C 21,7 C 42 % 1019,5 hPa 0,0 l/m 2 min 0 min 877 W/m 32,2 km/h (5 Bft) 97,87 %
22.04.2020 13:20 21,3 C 26,7 C 21,7 C 43 % 1019,5 hPa 0,0 l/m 2 min 0 min 882 W/m 12,9 km/h (3 Bft) 95,74 %
22.04.2020 13:22 21,4 C 26,7 C 22,2 C 42 % 1019,6 hPa 0,0 l/m 2 min 0 min 884 W/m 19,3 km/h (3 Bft) 97,87 %
22.04.2020 13:24 21,6 C 26,7 C 22,2 C 41 % 1019,5 hPa 0,0 l/m 2 min 0 min 880 W/m 12,9 km/h (3 Bft) 97,87 %
22.04.2020 13:26 21,6 C 26,7 C 22,2 C 41 % 1019,6 hPa 0,0 l/m 2 min 0 min 881 W/m 16,1 km/h (3 Bft) 97,83 %
22.04.2020 13:28 21,6 C 26,7 C 23,3 C 41 % 1019,5 hPa 0,0 l/m 2 min 0 min 879 W/m 16,1 km/h (3 Bft) 97,87 %
22.04.2020 13:30 21,7 C 27,2 C 25,6 C 42 % 1019,5 hPa 0,0 l/m 2 min 0 min 879 W/m 9,7 km/h (2 Bft) 97,87 %
22.04.2020 13:32 21,8 C 27,2 C 26,7 C 41 % 1019,4 hPa 0,0 l/m 2 min 0 min 880 W/m 16,1 km/h (3 Bft) 97,87 %
22.04.2020 13:34 21,8 C 27,2 C 28,3 C 41 % 1019,5 hPa 0,0 l/m 2 min 0 min 881 W/m 12,9 km/h (3 Bft) 97,87 %
22.04.2020 13:36 21,9 C 27,2 C 28,9 C 41 % 1019,4 hPa 0,0 l/m 2 min 0 min 882 W/m 12,9 km/h (3 Bft) 97,87 %
22.04.2020 13:38 22,0 C 27,2 C 29,4 C 41 % 1019,4 hPa 0,0 l/m 2 min 0 min 882 W/m 16,1 km/h (3 Bft) 97,83 %
22.04.2020 13:40 22,1 C 27,2 C 30,0 C 41 % 1019,4 hPa 0,0 l/m 2 min 0 min 882 W/m 12,9 km/h (3 Bft) 97,73 %
22.04.2020 13:42 22,1 C 26,7 C 30,0 C 40 % 1019,5 hPa 0,0 l/m 2 min 0 min 883 W/m 22,5 km/h (4 Bft) 97,87 %
22.04.2020 13:44 22,2 C 27,2 C 30,0 C 40 % 1019,4 hPa 0,0 l/m 2 min 0 min 883 W/m 16,1 km/h (3 Bft) 97,87 %
22.04.2020 13:46 22,2 C 27,2 C 30,0 C 41 % 1019,4 hPa 0,0 l/m 2 min 0 min 881 W/m 16,1 km/h (3 Bft) 97,83 %
22.04.2020 13:48 22,3 C 27,2 C 30,0 C 41 % 1019,4 hPa 0,0 l/m 2 min 0 min 883 W/m 9,7 km/h (2 Bft) 100,00 %
22.04.2020 13:50 22,3 C 27,2 C 30,0 C 40 % 1019,3 hPa 0,0 l/m 2 min 0 min 881 W/m 16,1 km/h (3 Bft) 100,00 %
22.04.2020 13:52 22,4 C 27,2 C 30,6 C 40 % 1019,3 hPa 0,0 l/m 2 min 0 min 882 W/m 16,1 km/h (3 Bft) 97,87 %
22.04.2020 13:54 22,5 C 27,2 C 30,6 C 40 % 1019,4 hPa 0,0 l/m 2 min 0 min 878 W/m 16,1 km/h (3 Bft) 100,00 %
22.04.2020 13:56 22,6 C 27,8 C 30,6 C 40 % 1019,4 hPa 0,0 l/m 2 min 0 min 880 W/m 16,1 km/h (3 Bft) 97,87 %
22.04.2020 13:58 22,6 C 27,2 C 30,6 C 39 % 1019,4 hPa 0,0 l/m 2 min 0 min 882 W/m 16,1 km/h (3 Bft) 100,00 %
22.04.2020 14:00 22,6 C 27,2 C 30,0 C 39 % 1019,4 hPa 0,0 l/m 2 min 0 min 877 W/m 22,5 km/h (4 Bft) 97,87 %
22.04.2020 14:02 22,6 C 27,2 C 30,0 C 38 % 1019,3 hPa 0,0 l/m 2 min 0 min 879 W/m 16,1 km/h (3 Bft) 100,00 %
22.04.2020 14:04 22,6 C 26,7 C 29,4 C 38 % 1019,3 hPa 0,0 l/m 2 min 0 min 877 W/m 16,1 km/h (3 Bft) 100,00 %
22.04.2020 14:06 22,6 C 27,2 C 30,0 C 38 % 1019,3 hPa 0,0 l/m 2 min 0 min 877 W/m 16,1 km/h (3 Bft) 100,00 %
22.04.2020 14:08 22,6 C 26,7 C 30,0 C 38 % 1019,2 hPa 0,0 l/m 2 min 0 min 878 W/m 16,1 km/h (3 Bft) 100,00 %
22.04.2020 14:10 22,6 C 26,7 C 30,0 C 38 % 1019,2 hPa 0,0 l/m 2 min 0 min 875 W/m 16,1 km/h (3 Bft) 100,00 %
22.04.2020 14:12 22,6 C 26,7 C 30,6 C 39 % 1019,2 hPa 0,0 l/m 2 min 0 min 875 W/m 12,9 km/h (3 Bft) 100,00 %
22.04.2020 14:14 22,6 C 27,2 C 31,1 C 39 % 1019,2 hPa 0,0 l/m 2 min 0 min 874 W/m 16,1 km/h (3 Bft) 100,00 %
22.04.2020 14:16 22,7 C 26,7 C 30,6 C 38 % 1019,2 hPa 0,0 l/m 2 min 0 min 872 W/m 16,1 km/h (3 Bft) 97,87 %
22.04.2020 14:18 22,7 C 27,2 C 30,6 C 39 % 1019,2 hPa 0,0 l/m 2 min 0 min 872 W/m 12,9 km/h (3 Bft) 100,00 %
22.04.2020 14:20 22,7 C 27,2 C 30,6 C 39 % 1019,2 hPa 0,0 l/m 2 min 0 min 869 W/m 19,3 km/h (3 Bft) 100,00 %
22.04.2020 14:22 22,8 C 27,8 C 30,6 C 39 % 1019,2 hPa 0,0 l/m 2 min 0 min 870 W/m 19,3 km/h (3 Bft) 100,00 %
22.04.2020 14:24 22,8 C 27,8 C 30,6 C 39 % 1019,2 hPa 0,0 l/m 2 min 0 min 866 W/m 12,9 km/h (3 Bft) 100,00 %
22.04.2020 14:26 22,8 C 27,8 C 30,0 C 38 % 1019,2 hPa 0,0 l/m 2 min 0 min 867 W/m 12,9 km/h (3 Bft) 97,87 %
22.04.2020 14:28 22,9 C 27,2 C 28,9 C 38 % 1019,2 hPa 0,0 l/m 2 min 0 min 866 W/m 16,1 km/h (3 Bft) 100,00 %
22.04.2020 14:30 22,9 C 27,2 C 27,8 C 38 % 1019,2 hPa 0,0 l/m 2 min 0 min 865 W/m 16,1 km/h (3 Bft) 97,87 %
22.04.2020 14:32 22,9 C 27,2 C 26,1 C 38 % 1019,1 hPa 0,0 l/m 2 min 0 min 862 W/m 19,3 km/h (3 Bft) 97,87 %
22.04.2020 14:34 23,0 C 27,2 C 25,0 C 37 % 1019,1 hPa 0,0 l/m 2 min 0 min 861 W/m 19,3 km/h (3 Bft) 97,83 %
22.04.2020 14:36 23,0 C 27,8 C 24,4 C 39 % 1019,1 hPa 0,0 l/m 2 min 0 min 859 W/m 16,1 km/h (3 Bft) 95,74 %
22.04.2020 14:38 23,1 C 28,3 C 24,4 C 39 % 1019,1 hPa 0,0 l/m 2 min 0 min 857 W/m 12,9 km/h (3 Bft) 97,87 %
22.04.2020 14:40 23,2 C 28,3 C 24,4 C 39 % 1019,1 hPa 0,0 l/m 2 min 0 min 856 W/m 19,3 km/h (3 Bft) 97,87 %
22.04.2020 14:42 23,3 C 28,3 C 24,4 C 40 % 1019,0 hPa 0,0 l/m 2 min 0 min 850 W/m 9,7 km/h (2 Bft) 97,87 %
22.04.2020 14:44 23,3 C 27,8 C 23,9 C 38 % 1019,1 hPa 0,0 l/m 2 min 0 min 849 W/m 19,3 km/h (3 Bft) 97,87 %
22.04.2020 14:46 23,3 C 27,8 C 23,9 C 40 % 1019,0 hPa 0,0 l/m 2 min 0 min 847 W/m 16,1 km/h (3 Bft) 97,83 %
22.04.2020 14:48 23,4 C 27,8 C 23,9 C 38 % 1019,0 hPa 0,0 l/m 2 min 0 min 845 W/m 12,9 km/h (3 Bft) 97,87 %
22.04.2020 14:50 23,4 C 27,8 C 23,9 C 38 % 1018,9 hPa 0,0 l/m 2 min 0 min 843 W/m 25,7 km/h (4 Bft) 97,87 %
22.04.2020 14:52 23,4 C 27,2 C 23,3 C 37 % 1019,0 hPa 0,0 l/m 2 min 0 min 842 W/m 19,3 km/h (3 Bft) 95,74 %
22.04.2020 14:54 23,4 C 26,7 C 23,3 C 36 % 1019,0 hPa 0,0 l/m 2 min 0 min 838 W/m 25,7 km/h (4 Bft) 97,87 %
22.04.2020 14:56 23,3 C 26,7 C 23,3 C 36 % 1018,9 hPa 0,0 l/m 2 min 0 min 836 W/m 12,9 km/h (3 Bft) 97,83 %
22.04.2020 14:58 23,3 C 27,2 C 23,9 C 36 % 1019,0 hPa 0,0 l/m 2 min 0 min 831 W/m 12,9 km/h (3 Bft) 97,87 %
22.04.2020 15:00 23,3 C 27,2 C 23,3 C 37 % 1019,0 hPa 0,0 l/m 2 min 0 min 832 W/m 19,3 km/h (3 Bft) 95,74 %
22.04.2020 15:02 23,3 C 27,2 C 23,3 C 37 % 1018,9 hPa 0,0 l/m 2 min 0 min 831 W/m 19,3 km/h (3 Bft) 95,74 %
22.04.2020 15:04 23,3 C 27,2 C 23,9 C 37 % 1018,9 hPa 0,0 l/m 2 min 0 min 830 W/m 19,3 km/h (3 Bft) 97,87 %
22.04.2020 15:06 23,3 C 27,8 C 23,9 C 38 % 1018,8 hPa 0,0 l/m 2 min 0 min 826 W/m 9,7 km/h (2 Bft) 97,87 %
22.04.2020 15:08 23,4 C 27,2 C 23,9 C 37 % 1018,9 hPa 0,0 l/m 2 min 0 min 824 W/m 25,7 km/h (4 Bft) 97,83 %
22.04.2020 15:10 23,4 C 27,8 C 23,9 C 37 % 1018,8 hPa 0,0 l/m 2 min 0 min 820 W/m 12,9 km/h (3 Bft) 97,87 %
22.04.2020 15:12 23,4 C 27,2 C 23,9 C 37 % 1018,8 hPa 0,0 l/m 2 min 0 min 818 W/m 12,9 km/h (3 Bft) 95,74 %
22.04.2020 15:14 23,4 C 26,7 C 23,3 C 36 % 1018,7 hPa 0,0 l/m 2 min 0 min 815 W/m 16,1 km/h (3 Bft) 97,87 %
22.04.2020 15:16 23,4 C 26,7 C 23,3 C 37 % 1018,7 hPa 0,0 l/m 2 min 0 min 809 W/m 29,0 km/h (5 Bft) 97,87 %
22.04.2020 15:18 23,4 C 26,7 C 23,3 C 37 % 1018,7 hPa 0,0 l/m 2 min 0 min 809 W/m 12,9 km/h (3 Bft) 97,87 %
22.04.2020 15:20 23,4 C 27,2 C 23,9 C 37 % 1018,8 hPa 0,0 l/m 2 min 0 min 807 W/m 22,5 km/h (4 Bft) 97,83 %
22.04.2020 15:22 23,4 C 27,2 C 23,3 C 37 % 1018,7 hPa 0,0 l/m 2 min 0 min 803 W/m 19,3 km/h (3 Bft) 93,62 %
22.04.2020 15:24 23,4 C 27,2 C 23,9 C 37 % 1018,7 hPa 0,0 l/m 2 min 0 min 799 W/m 16,1 km/h (3 Bft) 97,87 %
22.04.2020 15:26 23,4 C 27,2 C 23,9 C 37 % 1018,7 hPa 0,0 l/m 2 min 0 min 798 W/m 12,9 km/h (3 Bft) 95,74 %
22.04.2020 15:28 23,4 C 27,2 C 23,9 C 37 % 1018,7 hPa 0,0 l/m 2 min 0 min 794 W/m 12,9 km/h (3 Bft) 97,87 %
22.04.2020 15:30 23,4 C 27,2 C 23,9 C 37 % 1018,6 hPa 0,0 l/m 2 min 0 min 790 W/m 12,9 km/h (3 Bft) 97,87 %
22.04.2020 15:32 23,4 C 27,2 C 23,9 C 38 % 1018,6 hPa 0,0 l/m 2 min 0 min 787 W/m 16,1 km/h (3 Bft) 97,83 %
22.04.2020 15:34 23,5 C 27,2 C 23,9 C 37 % 1018,7 hPa 0,0 l/m 2 min 0 min 785 W/m 12,9 km/h (3 Bft) 97,87 %
22.04.2020 15:36 23,5 C 27,2 C 23,3 C 38 % 1018,6 hPa 0,0 l/m 2 min 0 min 780 W/m 19,3 km/h (3 Bft) 97,87 %
22.04.2020 15:38 23,6 C 27,2 C 23,9 C 38 % 1018,5 hPa 0,0 l/m 2 min 0 min 777 W/m 16,1 km/h (3 Bft) 97,87 %
22.04.2020 15:40 23,6 C 27,2 C 23,9 C 37 % 1018,6 hPa 0,0 l/m 2 min 0 min 773 W/m 16,1 km/h (3 Bft) 97,87 %
22.04.2020 15:42 23,6 C 26,7 C 23,3 C 36 % 1018,6 hPa 0,0 l/m 2 min 0 min 772 W/m 16,1 km/h (3 Bft) 97,87 %
22.04.2020 15:44 23,6 C 27,2 C 23,9 C 38 % 1018,5 hPa 0,0 l/m 2 min 0 min 770 W/m 12,9 km/h (3 Bft) 97,83 %
22.04.2020 15:46 23,6 C 27,2 C 23,9 C 37 % 1018,5 hPa 0,0 l/m 2 min 0 min 765 W/m 19,3 km/h (3 Bft) 97,87 %
22.04.2020 15:48 23,6 C 27,2 C 23,9 C 36 % 1018,5 hPa 0,0 l/m 2 min 0 min 760 W/m 12,9 km/h (3 Bft) 93,62 %
22.04.2020 15:50 23,7 C 27,2 C 23,9 C 37 % 1018,5 hPa 0,0 l/m 2 min 0 min 756 W/m 16,1 km/h (3 Bft) 95,74 %
22.04.2020 15:52 23,7 C 26,7 C 23,3 C 36 % 1018,5 hPa 0,0 l/m 2 min 0 min 753 W/m 16,1 km/h (3 Bft) 97,87 %
22.04.2020 15:54 23,7 C 27,2 C 23,3 C 36 % 1018,5 hPa 0,0 l/m 2 min 0 min 751 W/m 16,1 km/h (3 Bft) 97,87 %
22.04.2020 15:56 23,7 C 27,2 C 23,9 C 36 % 1018,4 hPa 0,0 l/m 2 min 0 min 747 W/m 12,9 km/h (3 Bft) 97,83 %
22.04.2020 15:58 23,7 C 27,2 C 23,9 C 36 % 1018,5 hPa 0,0 l/m 2 min 0 min 744 W/m 16,1 km/h (3 Bft) 93,62 %
22.04.2020 16:00 23,7 C 27,2 C 23,9 C 36 % 1018,4 hPa 0,0 l/m 2 min 0 min 739 W/m 25,7 km/h (4 Bft) 95,74 %
22.04.2020 16:02 23,7 C 26,7 C 23,3 C 35 % 1018,3 hPa 0,0 l/m 2 min 0 min 736 W/m 16,1 km/h (3 Bft) 95,74 %
22.04.2020 16:04 23,7 C 27,2 C 23,9 C 37 % 1018,4 hPa 0,0 l/m 2 min 0 min 730 W/m 19,3 km/h (3 Bft) 97,87 %
22.04.2020 16:06 23,7 C 26,7 C 23,9 C 36 % 1018,3 hPa 0,0 l/m 2 min 0 min 727 W/m 19,3 km/h (3 Bft) 95,65 %
22.04.2020 16:08 23,6 C 26,1 C 23,9 C 35 % 1018,3 hPa 0,0 l/m 2 min 0 min 722 W/m 12,9 km/h (3 Bft) 95,74 %
22.04.2020 16:10 23,6 C 27,2 C 23,9 C 36 % 1018,3 hPa 0,0 l/m 2 min 0 min 718 W/m 12,9 km/h (3 Bft) 97,87 %
22.04.2020 16:12 23,7 C 26,7 C 23,9 C 36 % 1018,3 hPa 0,0 l/m 2 min 0 min 715 W/m 29,0 km/h (5 Bft) 97,87 %
22.04.2020 16:14 23,7 C 26,7 C 23,3 C 36 % 1018,2 hPa 0,0 l/m 2 min 0 min 708 W/m 19,3 km/h (3 Bft) 95,74 %
22.04.2020 16:16 23,6 C 26,1 C 23,3 C 35 % 1018,2 hPa 0,0 l/m 2 min 0 min 702 W/m 19,3 km/h (3 Bft) 97,87 %
22.04.2020 16:18 23,6 C 26,1 C 23,3 C 35 % 1018,3 hPa 0,0 l/m 2 min 0 min 700 W/m 16,1 km/h (3 Bft) 97,83 %
22.04.2020 16:20 23,6 C 26,1 C 23,3 C 36 % 1018,3 hPa 0,0 l/m 2 min 0 min 697 W/m 22,5 km/h (4 Bft) 97,87 %
22.04.2020 16:22 23,6 C 26,7 C 25,0 C 36 % 1018,2 hPa 0,0 l/m 2 min 0 min 692 W/m 16,1 km/h (3 Bft) 95,74 %
22.04.2020 16:24 23,6 C 26,7 C 25,6 C 35 % 1018,2 hPa 0,0 l/m 2 min 0 min 686 W/m 16,1 km/h (3 Bft) 95,74 %
22.04.2020 16:26 23,6 C 27,2 C 25,6 C 37 % 1018,2 hPa 0,0 l/m 2 min 0 min 682 W/m 12,9 km/h (3 Bft) 97,87 %
22.04.2020 16:28 23,6 C 26,7 C 25,0 C 36 % 1018,2 hPa 0,0 l/m 2 min 0 min 678 W/m 16,1 km/h (3 Bft) 95,74 %
22.04.2020 16:30 23,6 C 27,2 C 24,4 C 37 % 1018,2 hPa 0,0 l/m 2 min 0 min 673 W/m 16,1 km/h (3 Bft) 97,83 %
22.04.2020 16:32 23,7 C 26,7 C 23,9 C 36 % 1018,2 hPa 0,0 l/m 2 min 0 min 668 W/m 25,7 km/h (4 Bft) 97,87 %
22.04.2020 16:34 23,7 C 26,1 C 23,3 C 35 % 1018,1 hPa 0,0 l/m 2 min 0 min 662 W/m 12,9 km/h (3 Bft) 97,87 %
22.04.2020 16:36 23,6 C 26,7 C 23,3 C 36 % 1018,1 hPa 0,0 l/m 2 min 0 min 657 W/m 16,1 km/h (3 Bft) 97,87 %
22.04.2020 16:38 23,6 C 26,7 C 23,3 C 36 % 1018,2 hPa 0,0 l/m 2 min 0 min 653 W/m 19,3 km/h (3 Bft) 97,87 %
22.04.2020 16:40 23,7 C 26,7 C 23,9 C 35 % 1018,1 hPa 0,0 l/m 2 min 0 min 651 W/m 16,1 km/h (3 Bft) 95,74 %
22.04.2020 16:42 23,7 C 26,1 C 23,3 C 35 % 1018,1 hPa 0,0 l/m 2 min 0 min 647 W/m 19,3 km/h (3 Bft) 97,83 %
22.04.2020 16:44 23,7 C 26,7 C 23,3 C 36 % 1018,1 hPa 0,0 l/m 2 min 0 min 643 W/m 12,9 km/h (3 Bft) 97,87 %
22.04.2020 16:46 23,7 C 26,7 C 24,4 C 36 % 1018,0 hPa 0,0 l/m 2 min 0 min 637 W/m 12,9 km/h (3 Bft) 95,74 %
22.04.2020 16:48 23,7 C 26,7 C 25,0 C 36 % 1018,0 hPa 0,0 l/m 2 min 0 min 630 W/m 12,9 km/h (3 Bft) 97,87 %
22.04.2020 16:50 23,7 C 27,2 C 24,4 C 37 % 1018,1 hPa 0,0 l/m 2 min 0 min 624 W/m 12,9 km/h (3 Bft) 97,87 %
22.04.2020 16:52 23,8 C 27,2 C 24,4 C 37 % 1018,0 hPa 0,0 l/m 2 min 0 min 619 W/m 16,1 km/h (3 Bft) 95,74 %
22.04.2020 16:54 23,8 C 26,7 C 25,0 C 35 % 1018,0 hPa 0,0 l/m 2 min 0 min 613 W/m 12,9 km/h (3 Bft) 97,83 %
22.04.2020 16:56 23,8 C 26,7 C 25,0 C 35 % 1017,9 hPa 0,0 l/m 2 min 0 min 607 W/m 22,5 km/h (4 Bft) 97,87 %
22.04.2020 16:58 23,8 C 26,1 C 25,6 C 35 % 1018,0 hPa 0,0 l/m 2 min 0 min 604 W/m 16,1 km/h (3 Bft) 95,74 %
22.04.2020 17:00 23,8 C 26,7 C 25,6 C 36 % 1018,0 hPa 0,0 l/m 2 min 0 min 600 W/m 19,3 km/h (3 Bft) 95,74 %
22.04.2020 17:02 23,8 C 26,1 C 26,7 C 35 % 1018,0 hPa 0,0 l/m 2 min 0 min 593 W/m 16,1 km/h (3 Bft) 95,74 %
22.04.2020 17:04 23,8 C 26,1 C 27,2 C 35 % 1018,0 hPa 0,0 l/m 2 min 0 min 588 W/m 16,1 km/h (3 Bft) 95,74 %
22.04.2020 17:06 23,8 C 26,1 C 27,2 C 35 % 1017,9 hPa 0,0 l/m 2 min 0 min 583 W/m 12,9 km/h (3 Bft) 97,83 %
22.04.2020 17:08 23,8 C 26,1 C 27,2 C 35 % 1017,9 hPa 0,0 l/m 2 min 0 min 579 W/m 19,3 km/h (3 Bft) 95,74 %
22.04.2020 17:10 23,7 C 26,1 C 26,1 C 35 % 1017,9 hPa 0,0 l/m 2 min 0 min 571 W/m 16,1 km/h (3 Bft) 97,87 %
22.04.2020 17:12 23,8 C 26,1 C 25,6 C 35 % 1017,9 hPa 0,0 l/m 2 min 0 min 567 W/m 12,9 km/h (3 Bft) 95,74 %
22.04.2020 17:14 23,8 C 26,1 C 24,4 C 35 % 1018,0 hPa 0,0 l/m 2 min 0 min 559 W/m 16,1 km/h (3 Bft) 97,87 %
22.04.2020 17:16 23,7 C 26,1 C 24,4 C 35 % 1017,9 hPa 0,0 l/m 2 min 0 min 554 W/m 16,1 km/h (3 Bft) 97,83 %
22.04.2020 17:18 23,7 C 25,6 C 25,0 C 35 % 1017,9 hPa 0,0 l/m 2 min 0 min 547 W/m 16,1 km/h (3 Bft) 97,87 %
22.04.2020 17:20 23,7 C 26,1 C 26,1 C 35 % 1017,8 hPa 0,0 l/m 2 min 0 min 542 W/m 12,9 km/h (3 Bft) 97,87 %
22.04.2020 17:22 23,7 C 26,1 C 26,7 C 36 % 1017,9 hPa 0,0 l/m 2 min 0 min 536 W/m 12,9 km/h (3 Bft) 97,87 %
22.04.2020 17:24 23,7 C 26,1 C 26,1 C 35 % 1017,8 hPa 0,0 l/m 2 min 0 min 530 W/m 12,9 km/h (3 Bft) 97,87 %
22.04.2020 17:26 23,7 C 26,1 C 26,1 C 36 % 1017,9 hPa 0,0 l/m 2 min 0 min 525 W/m 12,9 km/h (3 Bft) 97,87 %
22.04.2020 17:28 23,7 C 26,1 C 26,1 C 36 % 1017,8 hPa 0,0 l/m 2 min 0 min 519 W/m 12,9 km/h (3 Bft) 95,65 %
22.04.2020 17:30 23,7 C 26,1 C 26,7 C 37 % 1017,8 hPa 0,0 l/m 2 min 0 min 514 W/m 12,9 km/h (3 Bft) 97,87 %
22.04.2020 17:32 23,7 C 26,1 C 25,6 C 35 % 1017,8 hPa 0,0 l/m 2 min 0 min 507 W/m 22,5 km/h (4 Bft) 97,87 %
22.04.2020 17:34 23,7 C 25,6 C 24,4 C 36 % 1017,8 hPa 0,0 l/m 2 min 0 min 500 W/m 16,1 km/h (3 Bft) 95,74 %
22.04.2020 17:36 23,6 C 25,6 C 23,9 C 36 % 1017,8 hPa 0,0 l/m 2 min 0 min 495 W/m 16,1 km/h (3 Bft) 97,87 %
22.04.2020 17:38 23,6 C 25,6 C 23,3 C 34 % 1017,8 hPa 0,0 l/m 2 min 0 min 490 W/m 19,3 km/h (3 Bft) 97,87 %
22.04.2020 17:40 23,6 C 25,6 C 23,9 C 34 % 1017,7 hPa 0,0 l/m 2 min 0 min 483 W/m 19,3 km/h (3 Bft) 97,83 %
22.04.2020 17:42 23,6 C 25,6 C 23,3 C 35 % 1017,7 hPa 0,0 l/m 2 min 0 min 477 W/m 16,1 km/h (3 Bft) 100,00 %
22.04.2020 17:44 23,5 C 25,0 C 22,8 C 35 % 1017,8 hPa 0,0 l/m 2 min 0 min 472 W/m 16,1 km/h (3 Bft) 100,00 %
22.04.2020 17:46 23,5 C 25,0 C 22,2 C 35 % 1017,7 hPa 0,0 l/m 2 min 0 min 467 W/m 19,3 km/h (3 Bft) 97,87 %
22.04.2020 17:48 23,4 C 24,4 C 21,7 C 35 % 1017,7 hPa 0,0 l/m 2 min 0 min 460 W/m 29,0 km/h (5 Bft) 100,00 %
22.04.2020 17:50 23,3 C 24,4 C 21,7 C 35 % 1017,7 hPa 0,0 l/m 2 min 0 min 454 W/m 22,5 km/h (4 Bft) 100,00 %
22.04.2020 17:52 23,3 C 24,4 C 21,1 C 35 % 1017,7 hPa 0,0 l/m 2 min 0 min 449 W/m 29,0 km/h (5 Bft) 100,00 %
22.04.2020 17:54 23,2 C 25,0 C 20,6 C 36 % 1017,8 hPa 0,0 l/m 2 min 0 min 444 W/m 22,5 km/h (4 Bft) 97,87 %
22.04.2020 17:56 23,2 C 24,4 C 20,6 C 36 % 1017,8 hPa 0,0 l/m 2 min 0 min 437 W/m 16,1 km/h (3 Bft) 100,00 %
22.04.2020 17:58 23,1 C 23,9 C 20,6 C 35 % 1017,8 hPa 0,0 l/m 2 min 0 min 431 W/m 16,1 km/h (3 Bft) 100,00 %
22.04.2020 18:00 22,9 C 23,9 C 20,0 C 35 % 1017,8 hPa 0,0 l/m 2 min 0 min 425 W/m 19,3 km/h (3 Bft) 97,87 %
22.04.2020 18:02 22,9 C 24,4 C 20,0 C 36 % 1017,8 hPa 0,0 l/m 2 min 0 min 417 W/m 12,9 km/h (3 Bft) 100,00 %
22.04.2020 18:04 22,8 C 24,4 C 20,6 C 36 % 1017,9 hPa 0,0 l/m 2 min 0 min 413 W/m 16,1 km/h (3 Bft) 100,00 %
22.04.2020 18:08 22,8 C 23,9 C 20,0 C 36 % 1017,9 hPa 0,0 l/m 4 min 0 min 402 W/m 19,3 km/h (3 Bft) 100,00 %
22.04.2020 18:10 22,8 C 23,9 C 20,0 C 36 % 1017,9 hPa 0,0 l/m 2 min 0 min 393 W/m 12,9 km/h (3 Bft) 97,87 %
22.04.2020 18:12 22,7 C 23,9 C 20,0 C 35 % 1017,9 hPa 0,0 l/m 2 min 0 min 386 W/m 19,3 km/h (3 Bft) 100,00 %
22.04.2020 18:14 22,7 C 23,9 C 20,0 C 35 % 1017,9 hPa 0,0 l/m 2 min 0 min 381 W/m 19,3 km/h (3 Bft) 97,83 %
22.04.2020 18:16 22,7 C 23,9 C 20,0 C 35 % 1017,9 hPa 0,0 l/m 2 min 0 min 375 W/m 12,9 km/h (3 Bft) 97,87 %
22.04.2020 18:18 22,6 C 23,3 C 20,0 C 35 % 1017,9 hPa 0,0 l/m 2 min 0 min 369 W/m 19,3 km/h (3 Bft) 100,00 %
22.04.2020 18:20 22,6 C 23,3 C 19,4 C 35 % 1017,9 hPa 0,0 l/m 2 min 0 min 362 W/m 19,3 km/h (3 Bft) 100,00 %
22.04.2020 18:22 22,4 C 23,3 C 19,4 C 35 % 1017,9 hPa 0,0 l/m 2 min 0 min 356 W/m 16,1 km/h (3 Bft) 93,62 %
22.04.2020 18:24 22,4 C 23,3 C 19,4 C 35 % 1017,9 hPa 0,0 l/m 2 min 0 min 349 W/m 19,3 km/h (3 Bft) 100,00 %
22.04.2020 18:26 22,4 C 23,3 C 19,4 C 35 % 1017,8 hPa 0,0 l/m 2 min 0 min 343 W/m 19,3 km/h (3 Bft) 100,00 %
22.04.2020 18:28 22,3 C 23,3 C 19,4 C 35 % 1017,9 hPa 0,0 l/m 2 min 0 min 337 W/m 25,7 km/h (4 Bft) 97,87 %
22.04.2020 18:30 22,3 C 22,8 C 19,4 C 36 % 1017,8 hPa 0,0 l/m 2 min 0 min 330 W/m 12,9 km/h (3 Bft) 97,87 %
22.04.2020 18:32 22,2 C 22,8 C 19,4 C 36 % 1017,9 hPa 0,0 l/m 2 min 0 min 324 W/m 19,3 km/h (3 Bft) 95,74 %
22.04.2020 18:34 22,2 C 22,8 C 19,4 C 36 % 1017,9 hPa 0,0 l/m 2 min 0 min 318 W/m 12,9 km/h (3 Bft) 97,87 %
22.04.2020 18:36 22,1 C 22,8 C 19,4 C 36 % 1017,8 hPa 0,0 l/m 2 min 0 min 311 W/m 12,9 km/h (3 Bft) 95,74 %
22.04.2020 18:38 22,1 C 22,2 C 19,4 C 37 % 1017,9 hPa 0,0 l/m 2 min 0 min 304 W/m 12,9 km/h (3 Bft) 95,65 %
22.04.2020 18:40 22,1 C 21,1 C 19,4 C 37 % 1017,9 hPa 0,0 l/m 2 min 0 min 297 W/m 12,9 km/h (3 Bft) 97,87 %
22.04.2020 18:42 22,0 C 21,1 C 19,4 C 37 % 1017,9 hPa 0,0 l/m 2 min 0 min 283 W/m 25,7 km/h (4 Bft) 97,87 %
22.04.2020 18:44 21,9 C 20,6 C 19,4 C 36 % 1017,9 hPa 0,0 l/m 2 min 0 min 187 W/m 19,3 km/h (3 Bft) 97,87 %
22.04.2020 18:46 21,8 C 20,6 C 18,9 C 36 % 1017,9 hPa 0,0 l/m 0 min 0 min 74 W/m 16,1 km/h (3 Bft) 97,87 %
22.04.2020 18:48 21,7 C 20,6 C 18,9 C 37 % 1017,9 hPa 0,0 l/m 0 min 0 min 53 W/m 12,9 km/h (3 Bft) 97,87 %
22.04.2020 18:50 21,6 C 20,6 C 18,9 C 36 % 1018,0 hPa 0,0 l/m 0 min 0 min 51 W/m 16,1 km/h (3 Bft) 97,83 %
22.04.2020 18:52 21,6 C 20,0 C 18,9 C 37 % 1018,0 hPa 0,0 l/m 0 min 0 min 49 W/m 16,1 km/h (3 Bft) 97,87 %
22.04.2020 18:54 21,5 C 20,0 C 18,9 C 37 % 1018,0 hPa 0,0 l/m 0 min 0 min 49 W/m 16,1 km/h (3 Bft) 97,87 %
22.04.2020 18:56 21,4 C 20,0 C 18,9 C 37 % 1018,0 hPa 0,0 l/m 0 min 0 min 47 W/m 16,1 km/h (3 Bft) 97,87 %
22.04.2020 18:58 21,3 C 20,0 C 18,9 C 37 % 1018,0 hPa 0,0 l/m 0 min 0 min 47 W/m 16,1 km/h (3 Bft) 97,87 %
22.04.2020 19:00 21,3 C 20,0 C 18,9 C 38 % 1018,0 hPa 0,0 l/m 0 min 0 min 46 W/m 12,9 km/h (3 Bft) 97,87 %
22.04.2020 19:02 21,2 C 20,0 C 18,9 C 37 % 1018,0 hPa 0,0 l/m 0 min 0 min 46 W/m 19,3 km/h (3 Bft) 97,83 %
22.04.2020 19:04 21,1 C 20,0 C 18,3 C 38 % 1018,0 hPa 0,0 l/m 0 min 0 min 44 W/m 12,9 km/h (3 Bft) 97,87 %
22.04.2020 19:06 21,1 C 20,0 C 17,8 C 38 % 1018,0 hPa 0,0 l/m 0 min 0 min 44 W/m 12,9 km/h (3 Bft) 95,74 %
22.04.2020 19:08 21,1 C 20,0 C 17,2 C 38 % 1018,0 hPa 0,0 l/m 0 min 0 min 43 W/m 19,3 km/h (3 Bft) 100,00 %
22.04.2020 19:10 21,0 C 19,4 C 17,2 C 38 % 1018,0 hPa 0,0 l/m 0 min 0 min 42 W/m 19,3 km/h (3 Bft) 95,74 %
22.04.2020 19:12 20,9 C 19,4 C 17,2 C 39 % 1018,0 hPa 0,0 l/m 0 min 0 min 42 W/m 16,1 km/h (3 Bft) 95,65 %
22.04.2020 19:14 20,8 C 19,4 C 17,2 C 38 % 1018,0 hPa 0,0 l/m 0 min 0 min 40 W/m 19,3 km/h (3 Bft) 95,74 %
22.04.2020 19:16 20,8 C 19,4 C 16,7 C 39 % 1018,1 hPa 0,0 l/m 0 min 0 min 40 W/m 16,1 km/h (3 Bft) 100,00 %
22.04.2020 19:18 20,7 C 19,4 C 16,7 C 39 % 1018,1 hPa 0,0 l/m 0 min 0 min 39 W/m 16,1 km/h (3 Bft) 100,00 %
22.04.2020 19:20 20,7 C 19,4 C 16,7 C 39 % 1018,1 hPa 0,0 l/m 0 min 0 min 39 W/m 16,1 km/h (3 Bft) 97,87 %
22.04.2020 19:22 20,6 C 19,4 C 16,7 C 39 % 1018,2 hPa 0,0 l/m 0 min 0 min 39 W/m 16,1 km/h (3 Bft) 97,87 %
22.04.2020 19:24 20,6 C 18,9 C 16,1 C 40 % 1018,2 hPa 0,0 l/m 0 min 0 min 38 W/m 9,7 km/h (2 Bft) 97,83 %
22.04.2020 19:26 20,5 C 18,9 C 16,1 C 40 % 1018,2 hPa 0,0 l/m 0 min 0 min 37 W/m 22,5 km/h (4 Bft) 95,74 %
22.04.2020 19:28 20,4 C 18,9 C 15,6 C 40 % 1018,2 hPa 0,0 l/m 0 min 0 min 36 W/m 12,9 km/h (3 Bft) 95,74 %
22.04.2020 19:30 20,3 C 18,9 C 15,6 C 40 % 1018,2 hPa 0,0 l/m 0 min 0 min 35 W/m 19,3 km/h (3 Bft) 97,87 %
22.04.2020 19:32 20,2 C 18,9 C 15,6 C 40 % 1018,2 hPa 0,0 l/m 0 min 0 min 35 W/m 12,9 km/h (3 Bft) 95,74 %
22.04.2020 19:34 20,1 C 18,9 C 15,6 C 39 % 1018,2 hPa 0,0 l/m 0 min 0 min 33 W/m 16,1 km/h (3 Bft) 95,74 %
22.04.2020 19:36 20,1 C 18,9 C 16,1 C 40 % 1018,2 hPa 0,0 l/m 0 min 0 min 33 W/m 16,1 km/h (3 Bft) 95,65 %
22.04.2020 19:38 20,0 C 18,9 C 16,1 C 40 % 1018,2 hPa 0,0 l/m 0 min 0 min 33 W/m 16,1 km/h (3 Bft) 93,62 %
22.04.2020 19:40 20,0 C 18,9 C 16,1 C 40 % 1018,3 hPa 0,0 l/m 0 min 0 min 32 W/m 12,9 km/h (3 Bft) 95,74 %
22.04.2020 19:42 19,9 C 18,9 C 16,1 C 40 % 1018,3 hPa 0,0 l/m 0 min 0 min 32 W/m 19,3 km/h (3 Bft) 95,74 %
22.04.2020 19:44 19,9 C 18,9 C 16,1 C 40 % 1018,2 hPa 0,0 l/m 0 min 0 min 30 W/m 12,9 km/h (3 Bft) 95,74 %
22.04.2020 19:46 19,8 C 18,3 C 16,1 C 41 % 1018,2 hPa 0,0 l/m 0 min 0 min 30 W/m 12,9 km/h (3 Bft) 95,74 %
22.04.2020 19:48 19,8 C 18,3 C 16,1 C 40 % 1018,2 hPa 0,0 l/m 0 min 0 min 28 W/m 12,9 km/h (3 Bft) 93,48 %
22.04.2020 19:50 19,7 C 18,3 C 16,1 C 40 % 1018,3 hPa 0,0 l/m 0 min 0 min 28 W/m 12,9 km/h (3 Bft) 95,74 %
22.04.2020 19:52 19,7 C 18,3 C 16,1 C 41 % 1018,3 hPa 0,0 l/m 0 min 0 min 27 W/m 9,7 km/h (2 Bft) 95,74 %
22.04.2020 19:54 19,6 C 18,3 C 16,1 C 41 % 1018,3 hPa 0,0 l/m 0 min 0 min 26 W/m 19,3 km/h (3 Bft) 93,62 %
22.04.2020 19:56 19,6 C 18,3 C 16,1 C 41 % 1018,3 hPa 0,0 l/m 0 min 0 min 26 W/m 16,1 km/h (3 Bft) 95,74 %
22.04.2020 19:58 19,5 C 18,3 C 16,1 C 41 % 1018,4 hPa 0,0 l/m 0 min 0 min 25 W/m 12,9 km/h (3 Bft) 93,62 %
22.04.2020 20:00 19,4 C 18,3 C 16,1 C 41 % 1018,4 hPa 0,0 l/m 0 min 0 min 24 W/m 16,1 km/h (3 Bft) 95,65 %
22.04.2020 20:02 19,4 C 18,3 C 16,1 C 41 % 1018,3 hPa 0,0 l/m 0 min 0 min 23 W/m 12,9 km/h (3 Bft) 95,74 %
22.04.2020 20:04 19,4 C 18,3 C 16,1 C 41 % 1018,3 hPa 0,0 l/m 0 min 0 min 23 W/m 12,9 km/h (3 Bft) 93,62 %
22.04.2020 20:06 19,3 C 18,3 C 16,1 C 41 % 1018,3 hPa 0,0 l/m 0 min 0 min 21 W/m 19,3 km/h (3 Bft) 97,87 %
22.04.2020 20:08 19,3 C 17,8 C 16,1 C 41 % 1018,3 hPa 0,0 l/m 0 min 0 min 21 W/m 16,1 km/h (3 Bft) 97,87 %
22.04.2020 20:10 19,3 C 17,8 C 16,1 C 41 % 1018,3 hPa 0,0 l/m 0 min 0 min 19 W/m 16,1 km/h (3 Bft) 97,87 %
22.04.2020 20:12 19,2 C 17,8 C 16,1 C 41 % 1018,3 hPa 0,0 l/m 0 min 0 min 19 W/m 16,1 km/h (3 Bft) 95,65 %
22.04.2020 20:14 19,2 C 17,8 C 16,1 C 41 % 1018,3 hPa 0,0 l/m 0 min 0 min 18 W/m 16,1 km/h (3 Bft) 97,87 %
22.04.2020 20:16 19,2 C 17,8 C 16,1 C 41 % 1018,4 hPa 0,0 l/m 0 min 0 min 17 W/m 12,9 km/h (3 Bft) 97,87 %
22.04.2020 20:18 19,1 C 17,8 C 16,1 C 41 % 1018,4 hPa 0,0 l/m 0 min 0 min 16 W/m 3,2 km/h (1 Bft) 97,87 %
22.04.2020 20:20 19,1 C 17,8 C 16,1 C 41 % 1018,5 hPa 0,0 l/m 0 min 0 min 15 W/m 12,9 km/h (3 Bft) 53,49 %
22.04.2020 20:22 19,1 C 17,8 C 16,1 C 41 % 1018,5 hPa 0,0 l/m 0 min 0 min 14 W/m 16,1 km/h (3 Bft) 100,00 %
22.04.2020 20:24 19,0 C 17,2 C 16,1 C 41 % 1018,5 hPa 0,0 l/m 0 min 0 min 12 W/m 16,1 km/h (3 Bft) 100,00 %
22.04.2020 20:26 18,9 C 17,2 C 15,6 C 42 % 1018,5 hPa 0,0 l/m 0 min 0 min 12 W/m 12,9 km/h (3 Bft) 95,74 %
22.04.2020 20:28 18,9 C 17,2 C 15,6 C 42 % 1018,6 hPa 0,0 l/m 0 min 0 min 11 W/m 9,7 km/h (2 Bft) 100,00 %
22.04.2020 20:30 18,8 C 17,2 C 15,6 C 42 % 1018,5 hPa 0,0 l/m 0 min 0 min 11 W/m 3,2 km/h (1 Bft) 100,00 %
22.04.2020 20:32 18,7 C 17,2 C 15,6 C 42 % 1018,6 hPa 0,0 l/m 0 min 0 min 9 W/m 12,9 km/h (3 Bft) 100,00 %
22.04.2020 20:34 18,7 C 16,7 C 15,6 C 42 % 1018,5 hPa 0,0 l/m 0 min 0 min 9 W/m 12,9 km/h (3 Bft) 100,00 %
22.04.2020 20:36 18,6 C 16,7 C 15,6 C 42 % 1018,6 hPa 0,0 l/m 0 min 0 min 7 W/m 12,9 km/h (3 Bft) 95,65 %
22.04.2020 20:38 18,6 C 16,7 C 15,6 C 43 % 1018,6 hPa 0,0 l/m 0 min 0 min 7 W/m 9,7 km/h (2 Bft) 100,00 %
22.04.2020 20:40 18,5 C 16,7 C 15,6 C 42 % 1018,6 hPa 0,0 l/m 0 min 0 min 6 W/m 16,1 km/h (3 Bft) 100,00 %
22.04.2020 20:42 18,4 C 16,7 C 15,0 C 43 % 1018,7 hPa 0,0 l/m 0 min 0 min 5 W/m 12,9 km/h (3 Bft) 100,00 %
22.04.2020 20:44 18,4 C 16,7 C 15,0 C 42 % 1018,7 hPa 0,0 l/m 0 min 0 min 4 W/m 9,7 km/h (2 Bft) 100,00 %
22.04.2020 20:46 18,3 C 16,7 C 15,0 C 43 % 1018,7 hPa 0,0 l/m 0 min 0 min 0 W/m 9,7 km/h (2 Bft) 100,00 %
22.04.2020 20:48 18,2 C 16,7 C 15,0 C 43 % 1018,7 hPa 0,0 l/m 0 min 0 min 0 W/m 12,9 km/h (3 Bft) 100,00 %
22.04.2020 20:50 18,2 C 16,7 C 15,0 C 43 % 1018,7 hPa 0,0 l/m 0 min 0 min 0 W/m 12,9 km/h (3 Bft) 100,00 %
22.04.2020 20:52 18,1 C 16,7 C 15,0 C 43 % 1018,8 hPa 0,0 l/m 0 min 0 min 0 W/m 12,9 km/h (3 Bft) 100,00 %
22.04.2020 20:54 18,1 C 16,7 C 15,0 C 43 % 1018,7 hPa 0,0 l/m 0 min 0 min 0 W/m 16,1 km/h (3 Bft) 100,00 %
22.04.2020 20:56 18,0 C 16,7 C 15,0 C 43 % 1018,8 hPa 0,0 l/m 0 min 0 min 0 W/m 9,7 km/h (2 Bft) 100,00 %
22.04.2020 20:58 17,9 C 16,1 C 15,0 C 43 % 1018,7 hPa 0,0 l/m 0 min 0 min 0 W/m 16,1 km/h (3 Bft) 100,00 %
22.04.2020 21:00 17,9 C 16,1 C 15,0 C 43 % 1018,8 hPa 0,0 l/m 0 min 0 min 0 W/m 12,9 km/h (3 Bft) 97,87 %
22.04.2020 21:02 17,8 C 16,1 C 15,0 C 44 % 1018,9 hPa 0,0 l/m 0 min 0 min 0 W/m 12,9 km/h (3 Bft) 97,87 %
22.04.2020 21:04 17,8 C 16,1 C 15,0 C 44 % 1018,9 hPa 0,0 l/m 0 min 0 min 0 W/m 12,9 km/h (3 Bft) 100,00 %
22.04.2020 21:06 17,7 C 16,1 C 15,0 C 44 % 1018,9 hPa 0,0 l/m 0 min 0 min 0 W/m 9,7 km/h (2 Bft) 100,00 %
22.04.2020 21:08 17,7 C 16,1 C 15,0 C 44 % 1018,9 hPa 0,0 l/m 0 min 0 min 0 W/m 9,7 km/h (2 Bft) 100,00 %
22.04.2020 21:10 17,6 C 16,1 C 14,4 C 44 % 1019,0 hPa 0,0 l/m 0 min 0 min 0 W/m 6,4 km/h (2 Bft) 100,00 %
22.04.2020 21:12 17,6 C 15,6 C 14,4 C 44 % 1018,9 hPa 0,0 l/m 0 min 0 min 0 W/m 6,4 km/h (2 Bft) 100,00 %
22.04.2020 21:14 17,6 C 15,6 C 14,4 C 44 % 1019,0 hPa 0,0 l/m 0 min 0 min 0 W/m 16,1 km/h (3 Bft) 100,00 %
22.04.2020 21:16 17,5 C 15,6 C 14,4 C 44 % 1019,0 hPa 0,0 l/m 0 min 0 min 0 W/m 6,4 km/h (2 Bft) 100,00 %
22.04.2020 21:18 17,4 C 15,6 C 14,4 C 44 % 1019,1 hPa 0,0 l/m 0 min 0 min 0 W/m 9,7 km/h (2 Bft) 97,87 %
22.04.2020 21:20 17,4 C 15,6 C 14,4 C 44 % 1019,1 hPa 0,0 l/m 0 min 0 min 0 W/m 9,7 km/h (2 Bft) 100,00 %
22.04.2020 21:22 17,3 C 15,6 C 14,4 C 45 % 1019,1 hPa 0,0 l/m 0 min 0 min 0 W/m 9,7 km/h (2 Bft) 100,00 %
22.04.2020 21:24 17,3 C 15,6 C 14,4 C 45 % 1019,1 hPa 0,0 l/m 0 min 0 min 0 W/m 6,4 km/h (2 Bft) 95,74 %
22.04.2020 21:26 17,2 C 15,6 C 14,4 C 45 % 1019,2 hPa 0,0 l/m 0 min 0 min 0 W/m 6,4 km/h (2 Bft) 100,00 %
22.04.2020 21:28 17,2 C 15,6 C 13,9 C 45 % 1019,2 hPa 0,0 l/m 0 min 0 min 0 W/m 6,4 km/h (2 Bft) 100,00 %
22.04.2020 21:30 17,1 C 15,6 C 13,9 C 46 % 1019,2 hPa 0,0 l/m 0 min 0 min 0 W/m 12,9 km/h (3 Bft) 100,00 %
22.04.2020 21:32 17,1 C 15,0 C 13,9 C 45 % 1019,3 hPa 0,0 l/m 0 min 0 min 0 W/m 9,7 km/h (2 Bft) 97,83 %
22.04.2020 21:34 17,0 C 15,0 C 13,9 C 46 % 1019,3 hPa 0,0 l/m 0 min 0 min 0 W/m 3,2 km/h (1 Bft) 100,00 %
22.04.2020 21:36 16,9 C 15,0 C 13,9 C 46 % 1019,3 hPa 0,0 l/m 0 min 0 min 0 W/m 6,4 km/h (2 Bft) 100,00 %
22.04.2020 21:38 16,9 C 15,0 C 13,9 C 46 % 1019,3 hPa 0,0 l/m 0 min 0 min 0 W/m 3,2 km/h (1 Bft) 100,00 %
22.04.2020 21:40 16,8 C 15,0 C 13,9 C 46 % 1019,4 hPa 0,0 l/m 0 min 0 min 0 W/m 3,2 km/h (1 Bft) 95,74 %
22.04.2020 21:42 16,7 C 15,0 C 13,9 C 46 % 1019,4 hPa 0,0 l/m 0 min 0 min 0 W/m 6,4 km/h (2 Bft) 100,00 %
22.04.2020 21:44 16,7 C 14,4 C 13,9 C 47 % 1019,4 hPa 0,0 l/m 0 min 0 min 0 W/m 3,2 km/h (1 Bft) 100,00 %
22.04.2020 21:46 16,7 C 14,4 C 13,3 C 47 % 1019,4 hPa 0,0 l/m 0 min 0 min 0 W/m 3,2 km/h (1 Bft) 100,00 %
22.04.2020 21:48 16,6 C 14,4 C 13,3 C 47 % 1019,4 hPa 0,0 l/m 0 min 0 min 0 W/m 6,4 km/h (2 Bft) 97,87 %
22.04.2020 21:50 16,5 C 14,4 C 13,3 C 47 % 1019,5 hPa 0,0 l/m 0 min 0 min 0 W/m 6,4 km/h (2 Bft) 95,74 %
22.04.2020 21:52 16,4 C 14,4 C 13,3 C 47 % 1019,5 hPa 0,0 l/m 0 min 0 min 0 W/m 0,0 km/h (0 Bft) 95,74 %
22.04.2020 21:54 16,4 C 14,4 C 13,3 C 47 % 1019,5 hPa 0,0 l/m 0 min 0 min 0 W/m 6,4 km/h (2 Bft) 95,74 %
22.04.2020 21:56 16,3 C 14,4 C 13,3 C 47 % 1019,6 hPa 0,0 l/m 0 min 0 min 0 W/m 6,4 km/h (2 Bft) 95,65 %
22.04.2020 21:58 16,3 C 14,4 C 13,3 C 47 % 1019,5 hPa 0,0 l/m 0 min 0 min 0 W/m 3,2 km/h (1 Bft) 95,74 %
22.04.2020 22:00 16,2 C 14,4 C 13,3 C 48 % 1019,5 hPa 0,0 l/m 0 min 0 min 0 W/m 3,2 km/h (1 Bft) 95,74 %
22.04.2020 22:02 16,2 C 14,4 C 13,3 C 48 % 1019,6 hPa 0,0 l/m 0 min 0 min 0 W/m 0,0 km/h (0 Bft) 93,62 %
22.04.2020 22:04 16,1 C 14,4 C 13,3 C 48 % 1019,6 hPa 0,0 l/m 0 min 0 min 0 W/m 0,0 km/h (0 Bft) 93,62 %
22.04.2020 22:06 16,1 C 14,4 C 13,3 C 48 % 1019,7 hPa 0,0 l/m 0 min 0 min 0 W/m 6,4 km/h (2 Bft) 95,74 %
22.04.2020 22:08 16,0 C 14,4 C 13,3 C 48 % 1019,7 hPa 0,0 l/m 0 min 0 min 0 W/m 6,4 km/h (2 Bft) 95,65 %
22.04.2020 22:10 15,9 C 14,4 C 12,8 C 49 % 1019,8 hPa 0,0 l/m 0 min 0 min 0 W/m 3,2 km/h (1 Bft) 93,62 %
22.04.2020 22:12 15,9 C 13,9 C 12,8 C 49 % 1019,8 hPa 0,0 l/m 0 min 0 min 0 W/m 3,2 km/h (1 Bft) 95,74 %
22.04.2020 22:14 15,9 C 13,9 C 12,8 C 48 % 1019,8 hPa 0,0 l/m 0 min 0 min 0 W/m 3,2 km/h (1 Bft) 93,62 %
22.04.2020 22:16 15,8 C 13,9 C 12,8 C 49 % 1019,8 hPa 0,0 l/m 0 min 0 min 0 W/m 3,2 km/h (1 Bft) 93,62 %
22.04.2020 22:18 15,8 C 13,9 C 12,8 C 49 % 1019,8 hPa 0,0 l/m 0 min 0 min 0 W/m 6,4 km/h (2 Bft) 93,48 %
22.04.2020 22:20 15,7 C 13,9 C 12,8 C 49 % 1019,8 hPa 0,0 l/m 0 min 0 min 0 W/m 3,2 km/h (1 Bft) 95,74 %
22.04.2020 22:22 15,7 C 13,9 C 12,8 C 49 % 1019,8 hPa 0,0 l/m 0 min 0 min 0 W/m 6,4 km/h (2 Bft) 97,87 %
22.04.2020 22:24 15,6 C 13,3 C 12,2 C 49 % 1019,9 hPa 0,0 l/m 0 min 0 min 0 W/m 3,2 km/h (1 Bft) 93,62 %
22.04.2020 22:26 15,6 C 13,3 C 12,2 C 49 % 1019,9 hPa 0,0 l/m 0 min 0 min 0 W/m 3,2 km/h (1 Bft) 93,62 %
22.04.2020 22:28 15,5 C 13,3 C 12,2 C 50 % 1019,8 hPa 0,0 l/m 0 min 0 min 0 W/m 3,2 km/h (1 Bft) 95,74 %
22.04.2020 22:30 15,4 C 13,3 C 12,2 C 50 % 1019,8 hPa 0,0 l/m 0 min 0 min 0 W/m 0,0 km/h (0 Bft) 95,65 %
22.04.2020 22:32 15,3 C 12,8 C 12,2 C 50 % 1019,8 hPa 0,0 l/m 0 min 0 min 0 W/m 0,0 km/h (0 Bft) 95,74 %
22.04.2020 22:34 15,3 C 12,8 C 12,2 C 51 % 1019,8 hPa 0,0 l/m 0 min 0 min 0 W/m 0,0 km/h (0 Bft) 95,74 %
22.04.2020 22:36 15,2 C 12,8 C 11,7 C 51 % 1019,8 hPa 0,0 l/m 0 min 0 min 0 W/m 0,0 km/h (0 Bft) 93,62 %
22.04.2020 22:38 15,1 C 12,8 C 11,7 C 50 % 1019,9 hPa 0,0 l/m 0 min 0 min 0 W/m 0,0 km/h (0 Bft) 97,87 %
22.04.2020 22:40 15,1 C 12,8 C 11,7 C 51 % 1019,9 hPa 0,0 l/m 0 min 0 min 0 W/m 0,0 km/h (0 Bft) 93,62 %
22.04.2020 22:42 15,0 C 12,8 C 11,7 C 51 % 1019,9 hPa 0,0 l/m 0 min 0 min 0 W/m 0,0 km/h (0 Bft) 95,65 %
22.04.2020 22:44 14,9 C 12,8 C 11,7 C 51 % 1019,9 hPa 0,0 l/m 0 min 0 min 0 W/m 0,0 km/h (0 Bft) 95,74 %
22.04.2020 22:46 14,9 C 12,8 C 11,7 C 51 % 1020,0 hPa 0,0 l/m 0 min 0 min 0 W/m 0,0 km/h (0 Bft) 93,62 %
22.04.2020 22:48 14,8 C 12,8 C 11,7 C 51 % 1019,9 hPa 0,0 l/m 0 min 0 min 0 W/m 0,0 km/h (0 Bft) 95,74 %
22.04.2020 22:50 14,8 C 12,8 C 11,7 C 51 % 1020,0 hPa 0,0 l/m 0 min 0 min 0 W/m 0,0 km/h (0 Bft) 93,62 %
22.04.2020 22:52 14,7 C 12,8 C 11,7 C 51 % 1020,0 hPa 0,0 l/m 0 min 0 min 0 W/m 0,0 km/h (0 Bft) 93,48 %
22.04.2020 22:54 14,6 C 12,8 C 11,7 C 52 % 1020,0 hPa 0,0 l/m 0 min 0 min 0 W/m 3,2 km/h (1 Bft) 95,74 %
22.04.2020 22:56 14,6 C 12,8 C 11,7 C 52 % 1020,0 hPa 0,0 l/m 0 min 0 min 0 W/m 0,0 km/h (0 Bft) 97,87 %
22.04.2020 22:58 14,6 C 12,8 C 11,7 C 52 % 1020,1 hPa 0,0 l/m 0 min 0 min 0 W/m 3,2 km/h (1 Bft) 95,74 %
22.04.2020 23:00 14,4 C 12,8 C 11,7 C 52 % 1020,1 hPa 0,0 l/m 0 min 0 min 0 W/m 3,2 km/h (1 Bft) 97,87 %
22.04.2020 23:02 14,4 C 12,8 C 11,7 C 52 % 1020,2 hPa 0,0 l/m 0 min 0 min 0 W/m 3,2 km/h (1 Bft) 95,74 %
22.04.2020 23:04 14,3 C 13,3 C 11,7 C 52 % 1020,3 hPa 0,0 l/m 0 min 0 min 0 W/m 0,0 km/h (0 Bft) 97,87 %
22.04.2020 23:06 14,3 C 12,8 C 11,7 C 52 % 1020,3 hPa 0,0 l/m 0 min 0 min 0 W/m 3,2 km/h (1 Bft) 95,65 %
22.04.2020 23:08 14,3 C 12,8 C 11,7 C 53 % 1020,3 hPa 0,0 l/m 0 min 0 min 0 W/m 0,0 km/h (0 Bft) 97,87 %
22.04.2020 23:10 14,3 C 12,8 C 11,7 C 52 % 1020,3 hPa 0,0 l/m 0 min 0 min 0 W/m 0,0 km/h (0 Bft) 97,87 %
22.04.2020 23:12 14,3 C 12,8 C 11,7 C 53 % 1020,4 hPa 0,0 l/m 0 min 0 min 0 W/m 6,4 km/h (2 Bft) 95,74 %
22.04.2020 23:14 14,3 C 12,8 C 11,7 C 53 % 1020,3 hPa 0,0 l/m 0 min 0 min 0 W/m 0,0 km/h (0 Bft) 100,00 %
22.04.2020 23:16 14,3 C 12,8 C 11,7 C 53 % 1020,4 hPa 0,0 l/m 0 min 0 min 0 W/m 9,7 km/h (2 Bft) 95,65 %
22.04.2020 23:18 14,3 C 12,8 C 11,7 C 53 % 1020,3 hPa 0,0 l/m 0 min 0 min 0 W/m 6,4 km/h (2 Bft) 100,00 %
22.04.2020 23:20 14,3 C 12,8 C 11,7 C 53 % 1020,4 hPa 0,0 l/m 0 min 0 min 0 W/m 3,2 km/h (1 Bft) 100,00 %
22.04.2020 23:22 14,2 C 12,8 C 11,7 C 53 % 1020,4 hPa 0,0 l/m 0 min 0 min 0 W/m 3,2 km/h (1 Bft) 100,00 %
22.04.2020 23:24 14,2 C 12,8 C 11,7 C 53 % 1020,4 hPa 0,0 l/m 0 min 0 min 0 W/m 3,2 km/h (1 Bft) 97,87 %
22.04.2020 23:26 14,2 C 12,8 C 11,7 C 53 % 1020,4 hPa 0,0 l/m 0 min 0 min 0 W/m 0,0 km/h (0 Bft) 97,87 %
22.04.2020 23:28 14,1 C 12,2 C 11,7 C 53 % 1020,4 hPa 0,0 l/m 0 min 0 min 0 W/m 0,0 km/h (0 Bft) 100,00 %
22.04.2020 23:30 14,1 C 12,2 C 11,1 C 53 % 1020,4 hPa 0,0 l/m 0 min 0 min 0 W/m 0,0 km/h (0 Bft) 100,00 %
22.04.2020 23:32 14,1 C 12,2 C 11,1 C 53 % 1020,5 hPa 0,0 l/m 0 min 0 min 0 W/m 0,0 km/h (0 Bft) 95,74 %
22.04.2020 23:34 14,1 C 11,7 C 11,1 C 54 % 1020,5 hPa 0,0 l/m 0 min 0 min 0 W/m 0,0 km/h (0 Bft) 100,00 %
22.04.2020 23:36 14,0 C 11,7 C 11,1 C 53 % 1020,5 hPa 0,0 l/m 0 min 0 min 0 W/m 0,0 km/h (0 Bft) 100,00 %
22.04.2020 23:38 13,9 C 11,7 C 10,6 C 54 % 1020,5 hPa 0,0 l/m 0 min 0 min 0 W/m 0,0 km/h (0 Bft) 100,00 %
22.04.2020 23:40 13,9 C 11,7 C 10,6 C 54 % 1020,5 hPa 0,0 l/m 0 min 0 min 0 W/m 0,0 km/h (0 Bft) 100,00 %
22.04.2020 23:42 13,9 C 11,1 C 10,6 C 54 % 1020,5 hPa 0,0 l/m 0 min 0 min 0 W/m 0,0 km/h (0 Bft) 100,00 %
22.04.2020 23:44 13,8 C 11,1 C 10,6 C 54 % 1020,5 hPa 0,0 l/m 0 min 0 min 0 W/m 0,0 km/h (0 Bft) 100,00 %
22.04.2020 23:46 13,8 C 11,1 C 10,6 C 54 % 1020,5 hPa 0,0 l/m 0 min 0 min 0 W/m 0,0 km/h (0 Bft) 95,74 %
22.04.2020 23:48 13,7 C 11,1 C 10,6 C 54 % 1020,5 hPa 0,0 l/m 0 min 0 min 0 W/m 0,0 km/h (0 Bft) 93,62 %
22.04.2020 23:50 13,7 C 11,1 C 10,0 C 54 % 1020,6 hPa 0,0 l/m 0 min 0 min 0 W/m 0,0 km/h (0 Bft) 95,74 %
22.04.2020 23:52 13,6 C 11,1 C 10,0 C 54 % 1020,5 hPa 0,0 l/m 0 min 0 min 0 W/m 0,0 km/h (0 Bft) 97,83 %
22.04.2020 23:54 13,6 C 11,1 C 10,0 C 54 % 1020,5 hPa 0,0 l/m 0 min 0 min 0 W/m 0,0 km/h (0 Bft) 97,87 %
22.04.2020 23:56 13,5 C 11,7 C 10,0 C 54 % 1020,6 hPa 0,0 l/m 0 min 0 min 0 W/m 0,0 km/h (0 Bft) 97,87 %
22.04.2020 23:58 13,4 C 11,7 C 10,0 C 55 % 1020,5 hPa 0,0 l/m 0 min 0 min 0 W/m 0,0 km/h (0 Bft) 97,87 %
_ Min-Zeit 07:00 06:26 06:24 17:38 17:40 - - - - 00:04 20:20
Minimum _ 7,8 C 6,7 C 6,1 C 34 % 1017,7 hPa - - - - 0,0 km/h (0 Bft) 53,49 %
_ Max-Zeit 16:52 14:38 14:14 07:12 09:14 00:00 12:08 00:00 13:22 13:18 00:00
Maximum _ 23,8 C 28,3 C 31,1 C 73 % 1020,6 hPa 0,0 l/m 4 min 0 min 884 W/m 32,2 km/h
O (5 Bft)
100,00 %
Durchschnitt _ 15,8 C 16,8 C 15,3 C 52 % 1019,3 hPa #0,0 l/m #9:58 h #0 min. 479 W/m 9,4 km/h (2 Bft) 97,34 %
© 2020 W. Hausmann